Home > Products > Valid Products > TAF

000
FTUS41 KCTP 221312 AAA
TAFBFD
TAF AMD
KBFD 221312Z 2213/2312 29011G17KT P6SM BKN060
     FM221400 31013G22KT P6SM SCT070
     FM230200 30004KT P6SM SKC=



000
FTUS41 KCTP 221312 AAA
TAFBFD
TAF AMD
KBFD 221312Z 2213/2312 29011G17KT P6SM BKN060
     FM221400 31013G22KT P6SM SCT070
     FM230200 30004KT P6SM SKC=



000
FTUS41 KCTP 221239 AAA
TAFJST
TAF AMD
KJST 221239Z 2213/2312 24007KT P6SM SKC
     FM221400 26012G22KT P6SM SCT060
     FM221700 28017G27KT P6SM VCSH BKN060
     FM221900 30015G25KT P6SM SCT060
     FM230100 32009KT P6SM SKC=



000
FTUS41 KCTP 221239 AAA
TAFJST
TAF AMD
KJST 221239Z 2213/2312 24007KT P6SM SKC
     FM221400 26012G22KT P6SM SCT060
     FM221700 28017G27KT P6SM VCSH BKN060
     FM221900 30015G25KT P6SM SCT060
     FM230100 32009KT P6SM SKC=



000
FTUS41 KCTP 221239 AAA
TAFJST
TAF AMD
KJST 221239Z 2213/2312 24007KT P6SM SKC
     FM221400 26012G22KT P6SM SCT060
     FM221700 28017G27KT P6SM VCSH BKN060
     FM221900 30015G25KT P6SM SCT060
     FM230100 32009KT P6SM SKC=



000
FTUS41 KCTP 221239 AAA
TAFJST
TAF AMD
KJST 221239Z 2213/2312 24007KT P6SM SKC
     FM221400 26012G22KT P6SM SCT060
     FM221700 28017G27KT P6SM VCSH BKN060
     FM221900 30015G25KT P6SM SCT060
     FM230100 32009KT P6SM SKC=



000
FTUS41 KCTP 221122
TAFIPT
TAF
KIPT 221122Z 2212/2312 27008KT P6SM SKC
     FM221300 28014G24KT P6SM SCT070
     FM230100 29007KT P6SM SKC=



000
FTUS41 KCTP 221122
TAFIPT
TAF
KIPT 221122Z 2212/2312 27008KT P6SM SKC
     FM221300 28014G24KT P6SM SCT070
     FM230100 29007KT P6SM SKC=



000
FTUS41 KCTP 221122
TAFMDT
TAF
KMDT 221122Z 2212/2312 30010KT P6SM SKC
     FM221300 30016G26KT P6SM SCT070
     FM230100 30010KT P6SM SKC=



000
FTUS41 KCTP 221122
TAFBFD
TAF
KBFD 221122Z 2212/2312 26005KT P6SM SCT070
     FM221300 31013G22KT P6SM SCT070
     FM230200 30004KT P6SM SKC=



000
FTUS41 KCTP 221122
TAFAOO
TAF
KAOO 221122Z 2212/2312 24008KT P6SM SKC
     FM221300 29014G24KT P6SM SCT070
     FM230100 32009KT P6SM SKC=



000
FTUS41 KCTP 221122
TAFBFD
TAF
KBFD 221122Z 2212/2312 26005KT P6SM SCT070
     FM221300 31013G22KT P6SM SCT070
     FM230200 30004KT P6SM SKC=



000
FTUS41 KCTP 221122
TAFUNV
TAF
KUNV 221122Z 2212/2312 24008KT P6SM SKC
     FM221300 28015G25KT P6SM SCT070
     FM230100 31009KT P6SM SKC=



000
FTUS41 KCTP 221122
TAFJST
TAF
KJST 221122Z 2212/2312 26012G22KT P6SM SCT060
     FM221700 28017G27KT P6SM VCSH BKN060
     FM221900 30015G25KT P6SM SCT060
     FM230100 32009KT P6SM SKC=



000
FTUS41 KCTP 221122
TAFUNV
TAF
KUNV 221122Z 2212/2312 24008KT P6SM SKC
     FM221300 28015G25KT P6SM SCT070
     FM230100 31009KT P6SM SKC=



000
FTUS41 KCTP 221122
TAFMDT
TAF
KMDT 221122Z 2212/2312 30010KT P6SM SKC
     FM221300 30016G26KT P6SM SCT070
     FM230100 30010KT P6SM SKC=



000
FTUS41 KCTP 221122
TAFIPT
TAF
KIPT 221122Z 2212/2312 27008KT P6SM SKC
     FM221300 28014G24KT P6SM SCT070
     FM230100 29007KT P6SM SKC=



000
FTUS41 KCTP 221122
TAFMDT
TAF
KMDT 221122Z 2212/2312 30010KT P6SM SKC
     FM221300 30016G26KT P6SM SCT070
     FM230100 30010KT P6SM SKC=



000
FTUS41 KCTP 221122
TAFUNV
TAF
KUNV 221122Z 2212/2312 24008KT P6SM SKC
     FM221300 28015G25KT P6SM SCT070
     FM230100 31009KT P6SM SKC=



000
FTUS41 KCTP 221122
TAFBFD
TAF
KBFD 221122Z 2212/2312 26005KT P6SM SCT070
     FM221300 31013G22KT P6SM SCT070
     FM230200 30004KT P6SM SKC=



000
FTUS41 KCTP 221122
TAFAOO
TAF
KAOO 221122Z 2212/2312 24008KT P6SM SKC
     FM221300 29014G24KT P6SM SCT070
     FM230100 32009KT P6SM SKC=



000
FTUS41 KCTP 221122
TAFJST
TAF
KJST 221122Z 2212/2312 26012G22KT P6SM SCT060
     FM221700 28017G27KT P6SM VCSH BKN060
     FM221900 30015G25KT P6SM SCT060
     FM230100 32009KT P6SM SKC=



000
FTUS41 KCTP 221122
TAFBFD
TAF
KBFD 221122Z 2212/2312 26005KT P6SM SCT070
     FM221300 31013G22KT P6SM SCT070
     FM230200 30004KT P6SM SKC=



000
FTUS41 KCTP 221122
TAFAOO
TAF
KAOO 221122Z 2212/2312 24008KT P6SM SKC
     FM221300 29014G24KT P6SM SCT070
     FM230100 32009KT P6SM SKC=



000
FTUS41 KCTP 221122
TAFJST
TAF
KJST 221122Z 2212/2312 26012G22KT P6SM SCT060
     FM221700 28017G27KT P6SM VCSH BKN060
     FM221900 30015G25KT P6SM SCT060
     FM230100 32009KT P6SM SKC=



000
FTUS41 KCTP 221122
TAFAOO
TAF
KAOO 221122Z 2212/2312 24008KT P6SM SKC
     FM221300 29014G24KT P6SM SCT070
     FM230100 32009KT P6SM SKC=



000
FTUS41 KCTP 221122
TAFUNV
TAF
KUNV 221122Z 2212/2312 24008KT P6SM SKC
     FM221300 28015G25KT P6SM SCT070
     FM230100 31009KT P6SM SKC=



000
FTUS41 KCTP 221122
TAFIPT
TAF
KIPT 221122Z 2212/2312 27008KT P6SM SKC
     FM221300 28014G24KT P6SM SCT070
     FM230100 29007KT P6SM SKC=



000
FTUS41 KCTP 221122
TAFJST
TAF
KJST 221122Z 2212/2312 26012G22KT P6SM SCT060
     FM221700 28017G27KT P6SM VCSH BKN060
     FM221900 30015G25KT P6SM SCT060
     FM230100 32009KT P6SM SKC=



000
FTUS41 KCTP 221122
TAFMDT
TAF
KMDT 221122Z 2212/2312 30010KT P6SM SKC
     FM221300 30016G26KT P6SM SCT070
     FM230100 30010KT P6SM SKC=



000
FTUS41 KCTP 220917 AAA
TAFMDT
TAF AMD
KMDT 220917Z 2209/2306 30010KT P6SM SKC
     FM221300 30017G27KT P6SM SCT070
     FM230100 30010KT P6SM SKC=



000
FTUS41 KCTP 220917 AAA
TAFMDT
TAF AMD
KMDT 220917Z 2209/2306 30010KT P6SM SKC
     FM221300 30017G27KT P6SM SCT070
     FM230100 30010KT P6SM SKC=



000
FTUS41 KCTP 220915 AAA
TAFIPT
TAF AMD
KIPT 220915Z 2209/2306 27006KT P6SM SKC
     FM221300 28014G24KT P6SM SCT070
     FM230100 29007KT P6SM SKC=



000
FTUS41 KCTP 220915 AAA
TAFIPT
TAF AMD
KIPT 220915Z 2209/2306 27006KT P6SM SKC
     FM221300 28014G24KT P6SM SCT070
     FM230100 29007KT P6SM SKC=



000
FTUS41 KCTP 220914 AAA
TAFUNV
TAF AMD
KUNV 220914Z 2209/2306 24006KT P6SM SKC
     FM221300 28015G25KT P6SM SCT070
     FM230100 31009KT P6SM SKC=



000
FTUS41 KCTP 220914 AAA
TAFUNV
TAF AMD
KUNV 220914Z 2209/2306 24006KT P6SM SKC
     FM221300 28015G25KT P6SM SCT070
     FM230100 31009KT P6SM SKC=



000
FTUS41 KCTP 220913 AAA
TAFAOO
TAF AMD
KAOO 220913Z 2209/2306 25008KT P6SM SKC
     FM221300 29014G24KT P6SM SCT070
     FM230100 32009KT P6SM SKC=



000
FTUS41 KCTP 220913 AAA
TAFAOO
TAF AMD
KAOO 220913Z 2209/2306 25008KT P6SM SKC
     FM221300 29014G24KT P6SM SCT070
     FM230100 32009KT P6SM SKC=



000
FTUS41 KCTP 220913 AAA
TAFAOO
TAF AMD
KAOO 220913Z 2209/2306 25008KT P6SM SKC
     FM221300 29014G24KT P6SM SCT070
     FM230100 32009KT P6SM SKC=



000
FTUS41 KCTP 220909 AAA
TAFJST
TAF AMD
KJST 220909Z 2209/2306 23009KT P6SM SKC
     FM221200 27012G24KT P6SM SCT060
     FM221800 28017G27KT P6SM VCSH BKN060
     FM222000 30015G25KT P6SM SCT060
     FM230100 32009KT P6SM SKC=



000
FTUS41 KCTP 220909 AAA
TAFJST
TAF AMD
KJST 220909Z 2209/2306 23009KT P6SM SKC
     FM221200 27012G24KT P6SM SCT060
     FM221800 28017G27KT P6SM VCSH BKN060
     FM222000 30015G25KT P6SM SCT060
     FM230100 32009KT P6SM SKC=



000
FTUS41 KCTP 220907 AAA
TAFBFD
TAF AMD
KBFD 220907Z 2209/2306 26005KT P6SM SCT070
     FM221300 31013G22KT P6SM SCT070
     FM230200 30004KT P6SM SKC=



000
FTUS41 KCTP 220907 AAA
TAFBFD
TAF AMD
KBFD 220907Z 2209/2306 26005KT P6SM SCT070
     FM221300 31013G22KT P6SM SCT070
     FM230200 30004KT P6SM SKC=



000
FTUS41 KCTP 220539
TAFJST
TAF
KJST 220539Z 2206/2306 26007KT P6SM FEW006
     FM221200 27012G24KT P6SM BKN060
     FM221800 28017G27KT P6SM VCSH BKN050
     FM222000 30015G25KT P6SM SCT060
     FM230100 32009KT P6SM SKC=



000
FTUS41 KCTP 220539
TAFIPT
TAF
KIPT 220539Z 2206/2306 27006KT P6SM SCT080
     FM221300 28014G24KT P6SM SCT070
     FM230100 29007KT P6SM SKC=



000
FTUS41 KCTP 220539
TAFUNV
TAF
KUNV 220539Z 2206/2306 26006KT P6SM SKC
     FM221300 28015G25KT P6SM SCT070
     FM230100 31009KT P6SM SKC=



000
FTUS41 KCTP 220539
TAFBFD
TAF
KBFD 220539Z 2206/2306 27005KT P6SM SKC
     FM221300 31011G22KT P6SM SCT060
     FM230200 30004KT P6SM SKC=



000
FTUS41 KCTP 220539
TAFMDT
TAF
KMDT 220539Z 2206/2306 30010KT P6SM BKN050
     FM220700 30010KT P6SM SKC
     FM221300 30017G27KT P6SM SCT070
     FM230100 30010KT P6SM SKC=



000
FTUS41 KCTP 220539
TAFAOO
TAF
KAOO 220539Z 2206/2306 28008KT P6SM SKC
     FM221300 29014G24KT P6SM BKN070
     FM230100 32009KT P6SM SKC=



000
FTUS41 KCTP 220539
TAFUNV
TAF
KUNV 220539Z 2206/2306 26006KT P6SM SKC
     FM221300 28015G25KT P6SM SCT070
     FM230100 31009KT P6SM SKC=



000
FTUS41 KCTP 220539
TAFMDT
TAF
KMDT 220539Z 2206/2306 30010KT P6SM BKN050
     FM220700 30010KT P6SM SKC
     FM221300 30017G27KT P6SM SCT070
     FM230100 30010KT P6SM SKC=



000
FTUS41 KCTP 220539
TAFJST
TAF
KJST 220539Z 2206/2306 26007KT P6SM FEW006
     FM221200 27012G24KT P6SM BKN060
     FM221800 28017G27KT P6SM VCSH BKN050
     FM222000 30015G25KT P6SM SCT060
     FM230100 32009KT P6SM SKC=



000
FTUS41 KCTP 220539
TAFAOO
TAF
KAOO 220539Z 2206/2306 28008KT P6SM SKC
     FM221300 29014G24KT P6SM BKN070
     FM230100 32009KT P6SM SKC=



000
FTUS41 KCTP 220539
TAFBFD
TAF
KBFD 220539Z 2206/2306 27005KT P6SM SKC
     FM221300 31011G22KT P6SM SCT060
     FM230200 30004KT P6SM SKC=



000
FTUS41 KCTP 220539
TAFIPT
TAF
KIPT 220539Z 2206/2306 27006KT P6SM SCT080
     FM221300 28014G24KT P6SM SCT070
     FM230100 29007KT P6SM SKC=



000
FTUS41 KCTP 220539
TAFIPT
TAF
KIPT 220539Z 2206/2306 27006KT P6SM SCT080
     FM221300 28014G24KT P6SM SCT070
     FM230100 29007KT P6SM SKC=



000
FTUS41 KCTP 220539
TAFMDT
TAF
KMDT 220539Z 2206/2306 30010KT P6SM BKN050
     FM220700 30010KT P6SM SKC
     FM221300 30017G27KT P6SM SCT070
     FM230100 30010KT P6SM SKC=



000
FTUS41 KCTP 220539
TAFUNV
TAF
KUNV 220539Z 2206/2306 26006KT P6SM SKC
     FM221300 28015G25KT P6SM SCT070
     FM230100 31009KT P6SM SKC=



000
FTUS41 KCTP 220539
TAFBFD
TAF
KBFD 220539Z 2206/2306 27005KT P6SM SKC
     FM221300 31011G22KT P6SM SCT060
     FM230200 30004KT P6SM SKC=



000
FTUS41 KCTP 220539
TAFAOO
TAF
KAOO 220539Z 2206/2306 28008KT P6SM SKC
     FM221300 29014G24KT P6SM BKN070
     FM230100 32009KT P6SM SKC=



000
FTUS41 KCTP 220539
TAFJST
TAF
KJST 220539Z 2206/2306 26007KT P6SM FEW006
     FM221200 27012G24KT P6SM BKN060
     FM221800 28017G27KT P6SM VCSH BKN050
     FM222000 30015G25KT P6SM SCT060
     FM230100 32009KT P6SM SKC=



000
FTUS41 KCTP 220539
TAFBFD
TAF
KBFD 220539Z 2206/2306 27005KT P6SM SKC
     FM221300 31011G22KT P6SM SCT060
     FM230200 30004KT P6SM SKC=



000
FTUS41 KCTP 220539
TAFAOO
TAF
KAOO 220539Z 2206/2306 28008KT P6SM SKC
     FM221300 29014G24KT P6SM BKN070
     FM230100 32009KT P6SM SKC=



000
FTUS41 KCTP 220539
TAFUNV
TAF
KUNV 220539Z 2206/2306 26006KT P6SM SKC
     FM221300 28015G25KT P6SM SCT070
     FM230100 31009KT P6SM SKC=



000
FTUS41 KCTP 220539
TAFIPT
TAF
KIPT 220539Z 2206/2306 27006KT P6SM SCT080
     FM221300 28014G24KT P6SM SCT070
     FM230100 29007KT P6SM SKC=



000
FTUS41 KCTP 220539
TAFJST
TAF
KJST 220539Z 2206/2306 26007KT P6SM FEW006
     FM221200 27012G24KT P6SM BKN060
     FM221800 28017G27KT P6SM VCSH BKN050
     FM222000 30015G25KT P6SM SCT060
     FM230100 32009KT P6SM SKC=



000
FTUS41 KCTP 220539
TAFMDT
TAF
KMDT 220539Z 2206/2306 30010KT P6SM BKN050
     FM220700 30010KT P6SM SKC
     FM221300 30017G27KT P6SM SCT070
     FM230100 30010KT P6SM SKC=



000
FTUS41 KCTP 220306 AAB
TAFJST
TAF AMD
KJST 220306Z 2203/2224 33006KT P6SM BKN035
     FM220600 29010KT P6SM SCT060
     FM221300 29012G24KT P6SM BKN050=



000
FTUS41 KCTP 220306 AAA
TAFIPT
TAF AMD
KIPT 220306Z 2203/2224 27005KT P6SM VCSH OVC050
     FM221400 27010G24KT P6SM SCT050=



000
FTUS41 KCTP 220306 AAC
TAFAOO
TAF AMD
KAOO 220306Z 2203/2224 32009KT P6SM VCSH SCT015 OVC035
     FM221400 29010G24KT P6SM SCT050=



000
FTUS41 KCTP 220306 AAA
TAFMDT
TAF AMD
KMDT 220306Z 2203/2224 30010KT P6SM VCSH BKN080
     FM221400 30012G25KT P6SM SCT050=



000
FTUS41 KCTP 220306 AAB
TAFJST
TAF AMD
KJST 220306Z 2203/2224 33006KT P6SM BKN035
     FM220600 29010KT P6SM SCT060
     FM221300 29012G24KT P6SM BKN050=



000
FTUS41 KCTP 220306 AAA
TAFIPT
TAF AMD
KIPT 220306Z 2203/2224 27005KT P6SM VCSH OVC050
     FM221400 27010G24KT P6SM SCT050=



000
FTUS41 KCTP 220306 AAB
TAFUNV
TAF AMD
KUNV 220306Z 2203/2224 VRB03KT P6SM VCSH OVC050
     FM221400 28010G24KT P6SM SCT050=



000
FTUS41 KCTP 220306 AAA
TAFBFD
TAF AMD
KBFD 220306Z 2203/2224 28007KT P6SM BKN100
     FM221300 30010G24KT P6SM SCT050=



000
FTUS41 KCTP 220306 AAB
TAFUNV
TAF AMD
KUNV 220306Z 2203/2224 VRB03KT P6SM VCSH OVC050
     FM221400 28010G24KT P6SM SCT050=



000
FTUS41 KCTP 220306 AAC
TAFAOO
TAF AMD
KAOO 220306Z 2203/2224 32009KT P6SM VCSH SCT015 OVC035
     FM221400 29010G24KT P6SM SCT050=



000
FTUS41 KCTP 220306 AAA
TAFIPT
TAF AMD
KIPT 220306Z 2203/2224 27005KT P6SM VCSH OVC050
     FM221400 27010G24KT P6SM SCT050=



000
FTUS41 KCTP 220306 AAB
TAFJST
TAF AMD
KJST 220306Z 2203/2224 33006KT P6SM BKN035
     FM220600 29010KT P6SM SCT060
     FM221300 29012G24KT P6SM BKN050=



000
FTUS41 KCTP 220306 AAB
TAFUNV
TAF AMD
KUNV 220306Z 2203/2224 VRB03KT P6SM VCSH OVC050
     FM221400 28010G24KT P6SM SCT050=



000
FTUS41 KCTP 220306 AAB
TAFJST
TAF AMD
KJST 220306Z 2203/2224 33006KT P6SM BKN035
     FM220600 29010KT P6SM SCT060
     FM221300 29012G24KT P6SM BKN050=



000
FTUS41 KCTP 220306 AAA
TAFMDT
TAF AMD
KMDT 220306Z 2203/2224 30010KT P6SM VCSH BKN080
     FM221400 30012G25KT P6SM SCT050=



000
FTUS41 KCTP 220306 AAA
TAFIPT
TAF AMD
KIPT 220306Z 2203/2224 27005KT P6SM VCSH OVC050
     FM221400 27010G24KT P6SM SCT050=



000
FTUS41 KCTP 220306 AAA
TAFBFD
TAF AMD
KBFD 220306Z 2203/2224 28007KT P6SM BKN100
     FM221300 30010G24KT P6SM SCT050=



000
FTUS41 KCTP 220306 AAC
TAFAOO
TAF AMD
KAOO 220306Z 2203/2224 32009KT P6SM VCSH SCT015 OVC035
     FM221400 29010G24KT P6SM SCT050=



000
FTUS41 KCTP 220306 AAA
TAFMDT
TAF AMD
KMDT 220306Z 2203/2224 30010KT P6SM VCSH BKN080
     FM221400 30012G25KT P6SM SCT050=



000
FTUS41 KCTP 220306 AAA
TAFBFD
TAF AMD
KBFD 220306Z 2203/2224 28007KT P6SM BKN100
     FM221300 30010G24KT P6SM SCT050=



000
FTUS41 KCTP 220306 AAB
TAFUNV
TAF AMD
KUNV 220306Z 2203/2224 VRB03KT P6SM VCSH OVC050
     FM221400 28010G24KT P6SM SCT050=



000
FTUS41 KCTP 220306 AAA
TAFBFD
TAF AMD
KBFD 220306Z 2203/2224 28007KT P6SM BKN100
     FM221300 30010G24KT P6SM SCT050=



000
FTUS41 KCTP 220306 AAC
TAFAOO
TAF AMD
KAOO 220306Z 2203/2224 32009KT P6SM VCSH SCT015 OVC035
     FM221400 29010G24KT P6SM SCT050=



000
FTUS41 KCTP 220306 AAA
TAFMDT
TAF AMD
KMDT 220306Z 2203/2224 30010KT P6SM VCSH BKN080
     FM221400 30012G25KT P6SM SCT050=



000
FTUS41 KCTP 220251 AAA
TAFJST
TAF AMD
KJST 220251Z 2203/2224 33006KT P6SM OVC015
     FM220600 29010G15KT P6SM SCT060
     FM221300 29012G24KT P6SM BKN050=



000
FTUS41 KCTP 220251 AAA
TAFJST
TAF AMD
KJST 220251Z 2203/2224 33006KT P6SM OVC015
     FM220600 29010G15KT P6SM SCT060
     FM221300 29012G24KT P6SM BKN050=



000
FTUS41 KCTP 220251 AAA
TAFJST
TAF AMD
KJST 220251Z 2203/2224 33006KT P6SM OVC015
     FM220600 29010G15KT P6SM SCT060
     FM221300 29012G24KT P6SM BKN050=



000
FTUS41 KCTP 220210 AAA
TAFUNV
TAF AMD
KUNV 220210Z 2202/2224 VRB03KT 3SM -RADZ BR SCT015 OVC050
      TEMPO 2202/2204 6SM BR SCT009 OVC025
     FM220400 28004KT P6SM SCT015 OVC050
     FM221400 28010G24KT P6SM SCT050=



000
FTUS41 KCTP 220210 AAA
TAFUNV
TAF AMD
KUNV 220210Z 2202/2224 VRB03KT 3SM -RADZ BR SCT015 OVC050
      TEMPO 2202/2204 6SM BR SCT009 OVC025
     FM220400 28004KT P6SM SCT015 OVC050
     FM221400 28010G24KT P6SM SCT050=



000
FTUS41 KCTP 220209 AAB
TAFAOO
TAF AMD
KAOO 220209Z 2202/2224 32003KT P6SM VCSH SCT015 OVC035
     FM220300 31007KT P6SM SCT015 OVC050
     FM221400 29010G24KT P6SM SCT050=



000
FTUS41 KCTP 220209 AAB
TAFAOO
TAF AMD
KAOO 220209Z 2202/2224 32003KT P6SM VCSH SCT015 OVC035
     FM220300 31007KT P6SM SCT015 OVC050
     FM221400 29010G24KT P6SM SCT050=



000
FTUS41 KCTP 220058 AAA
TAFAOO
TAF AMD
KAOO 220058Z 2201/2224 32003KT P6SM VCSH SCT015 OVC035
      TEMPO 2201/2203 BKN015 OVC035
     FM220300 31007KT P6SM SCT015 OVC050
     FM221400 29010G24KT P6SM SCT050=



000
FTUS41 KCTP 220058 AAA
TAFAOO
TAF AMD
KAOO 220058Z 2201/2224 32003KT P6SM VCSH SCT015 OVC035
      TEMPO 2201/2203 BKN015 OVC035
     FM220300 31007KT P6SM SCT015 OVC050
     FM221400 29010G24KT P6SM SCT050=



000
FTUS41 KCTP 220005 CCA
TAFUNV
TAF COR
KUNV 220005Z 2200/2224 VRB03KT 3SM -RADZ BR OVC015
      TEMPO 2200/2204 3SM -RADZ BR SCT009 OVC025
     FM220400 28004KT P6SM BKN015 OVC050
     FM220600 27004KT P6SM SCT070
     FM221400 28010G24KT P6SM SCT050=



000
FTUS41 KCTP 220005 CCA
TAFUNV
TAF COR
KUNV 220005Z 2200/2224 VRB03KT 3SM -RADZ BR OVC015
      TEMPO 2200/2204 3SM -RADZ BR SCT009 OVC025
     FM220400 28004KT P6SM BKN015 OVC050
     FM220600 27004KT P6SM SCT070
     FM221400 28010G24KT P6SM SCT050=



000
FTUS41 KCTP 220005 CCA
TAFUNV
TAF COR
KUNV 220005Z 2200/2224 VRB03KT 3SM -RADZ BR OVC015
      TEMPO 2200/2204 3SM -RADZ BR SCT009 OVC025
     FM220400 28004KT P6SM BKN015 OVC050
     FM220600 27004KT P6SM SCT070
     FM221400 28010G24KT P6SM SCT050=



000
FTUS41 KCTP 220005 CCA
TAFUNV
TAF COR
KUNV 220005Z 2200/2224 VRB03KT 3SM -RADZ BR OVC015
      TEMPO 2200/2204 3SM -RADZ BR SCT009 OVC025
     FM220400 28004KT P6SM BKN015 OVC050
     FM220600 27004KT P6SM SCT070
     FM221400 28010G24KT P6SM SCT050=



000
FTUS41 KCTP 212327
TAFAOO
TAF
KAOO 212327Z 2200/2224 VRB03KT 3SM -RADZ BR BKN005 OVC015
     FM220300 31005KT P6SM OVC009
     FM220500 30007KT P6SM OVC060
     FM221400 29010G24KT P6SM SCT050=



000
FTUS41 KCTP 212327
TAFBFD
TAF
KBFD 212327Z 2200/2224 28007KT P6SM SCT035 BKN045
     FM221300 30010G24KT P6SM SCT050=



000
FTUS41 KCTP 212327
TAFIPT
TAF
KIPT 212327Z 2200/2224 27005KT P6SM VCSH OVC050
     FM220600 28005KT P6SM BKN090
     FM221400 27010G24KT P6SM SCT050=



000
FTUS41 KCTP 212327
TAFBFD
TAF
KBFD 212327Z 2200/2224 28007KT P6SM SCT035 BKN045
     FM221300 30010G24KT P6SM SCT050=



000
FTUS41 KCTP 212327
TAFUNV
TAF
KUNV 212327Z 2200/2224 VRB03KT 2SM -RADZ BR OVC015
      TEMPO 2200/2204 3SM -RADZ BR BKN009 OVC015
     FM220400 28004KT P6SM BKN015 OVC050
     FM220600 27004KT P6SM SCT070
     FM221400 28010G24KT P6SM SCT050=



000
FTUS41 KCTP 212327
TAFUNV
TAF
KUNV 212327Z 2200/2224 VRB03KT 2SM -RADZ BR OVC015
      TEMPO 2200/2204 3SM -RADZ BR BKN009 OVC015
     FM220400 28004KT P6SM BKN015 OVC050
     FM220600 27004KT P6SM SCT070
     FM221400 28010G24KT P6SM SCT050=



000
FTUS41 KCTP 212327
TAFIPT
TAF
KIPT 212327Z 2200/2224 27005KT P6SM VCSH OVC050
     FM220600 28005KT P6SM BKN090
     FM221400 27010G24KT P6SM SCT050=



000
FTUS41 KCTP 212327
TAFAOO
TAF
KAOO 212327Z 2200/2224 VRB03KT 3SM -RADZ BR BKN005 OVC015
     FM220300 31005KT P6SM OVC009
     FM220500 30007KT P6SM OVC060
     FM221400 29010G24KT P6SM SCT050=



000
FTUS41 KCTP 212327
TAFIPT
TAF
KIPT 212327Z 2200/2224 27005KT P6SM VCSH OVC050
     FM220600 28005KT P6SM BKN090
     FM221400 27010G24KT P6SM SCT050=



000
FTUS41 KCTP 212327
TAFJST
TAF
KJST 212327Z 2200/2224 33006KT P6SM -RA SCT006 OVC012
      TEMPO 2200/2204 BKN005 OVC012
     FM220600 29010G15KT P6SM SCT060
     FM221300 29012G24KT P6SM BKN050=



000
FTUS41 KCTP 212327
TAFMDT
TAF
KMDT 212327Z 2200/2224 VRB03KT P6SM VCSH OVC040
     FM220400 31007KT P6SM BKN050
     FM221400 30012G25KT P6SM SCT050=



000
FTUS41 KCTP 212327
TAFBFD
TAF
KBFD 212327Z 2200/2224 28007KT P6SM SCT035 BKN045
     FM221300 30010G24KT P6SM SCT050=



000
FTUS41 KCTP 212327
TAFBFD
TAF
KBFD 212327Z 2200/2224 28007KT P6SM SCT035 BKN045
     FM221300 30010G24KT P6SM SCT050=



000
FTUS41 KCTP 212327
TAFUNV
TAF
KUNV 212327Z 2200/2224 VRB03KT 2SM -RADZ BR OVC015
      TEMPO 2200/2204 3SM -RADZ BR BKN009 OVC015
     FM220400 28004KT P6SM BKN015 OVC050
     FM220600 27004KT P6SM SCT070
     FM221400 28010G24KT P6SM SCT050=



000
FTUS41 KCTP 212327
TAFIPT
TAF
KIPT 212327Z 2200/2224 27005KT P6SM VCSH OVC050
     FM220600 28005KT P6SM BKN090
     FM221400 27010G24KT P6SM SCT050=



000
FTUS41 KCTP 212327
TAFMDT
TAF
KMDT 212327Z 2200/2224 VRB03KT P6SM VCSH OVC040
     FM220400 31007KT P6SM BKN050
     FM221400 30012G25KT P6SM SCT050=



000
FTUS41 KCTP 212327
TAFJST
TAF
KJST 212327Z 2200/2224 33006KT P6SM -RA SCT006 OVC012
      TEMPO 2200/2204 BKN005 OVC012
     FM220600 29010G15KT P6SM SCT060
     FM221300 29012G24KT P6SM BKN050=



000
FTUS41 KCTP 212327
TAFAOO
TAF
KAOO 212327Z 2200/2224 VRB03KT 3SM -RADZ BR BKN005 OVC015
     FM220300 31005KT P6SM OVC009
     FM220500 30007KT P6SM OVC060
     FM221400 29010G24KT P6SM SCT050=



000
FTUS41 KCTP 212327
TAFJST
TAF
KJST 212327Z 2200/2224 33006KT P6SM -RA SCT006 OVC012
      TEMPO 2200/2204 BKN005 OVC012
     FM220600 29010G15KT P6SM SCT060
     FM221300 29012G24KT P6SM BKN050=



000
FTUS41 KCTP 212327
TAFAOO
TAF
KAOO 212327Z 2200/2224 VRB03KT 3SM -RADZ BR BKN005 OVC015
     FM220300 31005KT P6SM OVC009
     FM220500 30007KT P6SM OVC060
     FM221400 29010G24KT P6SM SCT050=



000
FTUS41 KCTP 212327
TAFMDT
TAF
KMDT 212327Z 2200/2224 VRB03KT P6SM VCSH OVC040
     FM220400 31007KT P6SM BKN050
     FM221400 30012G25KT P6SM SCT050=



000
FTUS41 KCTP 212327
TAFUNV
TAF
KUNV 212327Z 2200/2224 VRB03KT 2SM -RADZ BR OVC015
      TEMPO 2200/2204 3SM -RADZ BR BKN009 OVC015
     FM220400 28004KT P6SM BKN015 OVC050
     FM220600 27004KT P6SM SCT070
     FM221400 28010G24KT P6SM SCT050=



000
FTUS41 KCTP 212327
TAFMDT
TAF
KMDT 212327Z 2200/2224 VRB03KT P6SM VCSH OVC040
     FM220400 31007KT P6SM BKN050
     FM221400 30012G25KT P6SM SCT050=



000
FTUS41 KCTP 212239 AAC
TAFAOO
TAF AMD
KAOO 212239Z 2123/2218 VRB03KT 1 1/2SM -RADZ BR BKN003 OVC015
     FM220300 31005KT P6SM OVC009
     FM220500 30007KT P6SM OVC060
     FM221400 29010G24KT P6SM SCT250=



000
FTUS41 KCTP 212239 AAC
TAFAOO
TAF AMD
KAOO 212239Z 2123/2218 VRB03KT 1 1/2SM -RADZ BR BKN003 OVC015
     FM220300 31005KT P6SM OVC009
     FM220500 30007KT P6SM OVC060
     FM221400 29010G24KT P6SM SCT250=



000
FTUS41 KCTP 212239 AAC
TAFAOO
TAF AMD
KAOO 212239Z 2123/2218 VRB03KT 1 1/2SM -RADZ BR BKN003 OVC015
     FM220300 31005KT P6SM OVC009
     FM220500 30007KT P6SM OVC060
     FM221400 29010G24KT P6SM SCT250=



000
FTUS41 KCTP 212239 AAC
TAFAOO
TAF AMD
KAOO 212239Z 2123/2218 VRB03KT 1 1/2SM -RADZ BR BKN003 OVC015
     FM220300 31005KT P6SM OVC009
     FM220500 30007KT P6SM OVC060
     FM221400 29010G24KT P6SM SCT250=



000
FTUS41 KCTP 212203 AAB
TAFAOO
TAF AMD
KAOO 212203Z 2122/2218 15007KT 1 1/2SM -RADZ BR BKN009 OVC015
     FM220300 29005KT P6SM SCT070
     FM221400 29010G24KT P6SM SCT250=



000
FTUS41 KCTP 212203 AAB
TAFAOO
TAF AMD
KAOO 212203Z 2122/2218 15007KT 1 1/2SM -RADZ BR BKN009 OVC015
     FM220300 29005KT P6SM SCT070
     FM221400 29010G24KT P6SM SCT250=



000
FTUS41 KCTP 212203 AAB
TAFAOO
TAF AMD
KAOO 212203Z 2122/2218 15007KT 1 1/2SM -RADZ BR BKN009 OVC015
     FM220300 29005KT P6SM SCT070
     FM221400 29010G24KT P6SM SCT250=



000
FTUS41 KCTP 212203 AAB
TAFAOO
TAF AMD
KAOO 212203Z 2122/2218 15007KT 1 1/2SM -RADZ BR BKN009 OVC015
     FM220300 29005KT P6SM SCT070
     FM221400 29010G24KT P6SM SCT250=



000
FTUS41 KCTP 212121 AAB
TAFJST
TAF AMD
KJST 212121Z 2121/2218 15007KT 1 1/2SM -RADZ BR OVC006
     FM220600 29007KT P6SM SCT060
     FM221300 29012G24KT P6SM BKN050=



000
FTUS41 KCTP 212121 AAB
TAFUNV
TAF AMD
KUNV 212121Z 2121/2218 00000KT 2SM -RADZ BR OVC015
      TEMPO 2121/2201 1 1/2SM -RADZ BR BKN009 OVC015
     FM220400 28004KT P6SM SCT070
     FM221400 28010G24KT P6SM SCT250=



000
FTUS41 KCTP 212121 AAA
TAFIPT
TAF AMD
KIPT 212121Z 2121/2218 VRB02KT P6SM OVC040
     FM220300 29004KT P6SM SCT090
     FM221400 27010G24KT P6SM SCT250=



000
FTUS41 KCTP 212121 AAA
TAFAOO
TAF AMD
KAOO 212121Z 2121/2218 15007KT P6SM VCSH BKN009 OVC015
     FM220300 29005KT P6SM SCT070
     FM221400 29010G24KT P6SM SCT250=



000
FTUS41 KCTP 212121 AAA
TAFMDT
TAF AMD
KMDT 212121Z 2121/2218 VRB03KT P6SM OVC045
     FM220600 31007KT P6SM SCT050
     FM221400 30012G25KT P6SM SCT250=



000
FTUS41 KCTP 212121 AAA
TAFIPT
TAF AMD
KIPT 212121Z 2121/2218 VRB02KT P6SM OVC040
     FM220300 29004KT P6SM SCT090
     FM221400 27010G24KT P6SM SCT250=



000
FTUS41 KCTP 212121 AAB
TAFUNV
TAF AMD
KUNV 212121Z 2121/2218 00000KT 2SM -RADZ BR OVC015
      TEMPO 2121/2201 1 1/2SM -RADZ BR BKN009 OVC015
     FM220400 28004KT P6SM SCT070
     FM221400 28010G24KT P6SM SCT250=



000
FTUS41 KCTP 212121 AAA
TAFBFD
TAF AMD
KBFD 212121Z 2121/2218 VRB05KT P6SM SCT035 BKN045
     FM221300 30010G24KT P6SM SCT250=



000
FTUS41 KCTP 212121 AAA
TAFMDT
TAF AMD
KMDT 212121Z 2121/2218 VRB03KT P6SM OVC045
     FM220600 31007KT P6SM SCT050
     FM221400 30012G25KT P6SM SCT250=



000
FTUS41 KCTP 211854 AAA
TAFJST
TAF AMD
KJST 211854Z 2119/2218 15007KT 6SM BR OVC007
      TEMPO 2119/2121 4SM BR OVC012
     FM220100 29007KT P6SM SCT060
     FM221300 29012G24KT P6SM BKN050=



000
FTUS41 KCTP 211854 AAA
TAFJST
TAF AMD
KJST 211854Z 2119/2218 15007KT 6SM BR OVC007
      TEMPO 2119/2121 4SM BR OVC012
     FM220100 29007KT P6SM SCT060
     FM221300 29012G24KT P6SM BKN050=



000
FTUS41 KCTP 211853 AAA
TAFUNV
TAF AMD
KUNV 211853Z 2119/2218 00000KT 6SM BR OVC015
      TEMPO 2121/2123 5SM BR OVC025
     FM220100 28004KT P6SM SCT070
     FM221400 28010G24KT P6SM SCT250=



000
FTUS41 KCTP 211853 AAA
TAFUNV
TAF AMD
KUNV 211853Z 2119/2218 00000KT 6SM BR OVC015
      TEMPO 2121/2123 5SM BR OVC025
     FM220100 28004KT P6SM SCT070
     FM221400 28010G24KT P6SM SCT250=



000
FTUS41 KCTP 211853 AAA
TAFUNV
TAF AMD
KUNV 211853Z 2119/2218 00000KT 6SM BR OVC015
      TEMPO 2121/2123 5SM BR OVC025
     FM220100 28004KT P6SM SCT070
     FM221400 28010G24KT P6SM SCT250=



000
FTUS41 KCTP 211853 AAA
TAFUNV
TAF AMD
KUNV 211853Z 2119/2218 00000KT 6SM BR OVC015
      TEMPO 2121/2123 5SM BR OVC025
     FM220100 28004KT P6SM SCT070
     FM221400 28010G24KT P6SM SCT250=



000
FTUS41 KCTP 211737
TAFUNV
TAF
KUNV 211737Z 2118/2218 VRB03KT P6SM OVC035
     FM212100 12003KT P6SM BKN040
     FM220100 28004KT P6SM SCT070
     FM221400 28010G24KT P6SM SCT250=



000
FTUS41 KCTP 211737
TAFAOO
TAF
KAOO 211737Z 2118/2218 15007KT P6SM OVC015
     FM212100 VRB03KT P6SM BKN025
     FM220100 29005KT P6SM SCT070
     FM221400 29010G24KT P6SM SCT250=



000
FTUS41 KCTP 211737
TAFMDT
TAF
KMDT 211737Z 2118/2218 19008KT P6SM OVC045
     FM212100 14006KT P6SM BKN050
     FM220600 31007KT P6SM SCT050
     FM221400 30012G25KT P6SM SCT250=



000
FTUS41 KCTP 211737
TAFJST
TAF
KJST 211737Z 2118/2218 15009KT P6SM OVC008
     FM212000 29005KT P6SM OVC015
     FM220100 29007KT P6SM SCT060
     FM221300 29012G24KT P6SM BKN050=



000
FTUS41 KCTP 211737
TAFIPT
TAF
KIPT 211737Z 2118/2218 VRB02KT P6SM OVC035
     FM212000 17004KT P6SM BKN050
     FM220300 29004KT P6SM SCT090
     FM221400 27010G24KT P6SM SCT250=



000
FTUS41 KCTP 211737
TAFBFD
TAF
KBFD 211737Z 2118/2218 VRB05KT P6SM SCT035 BKN045
     FM220000 27005KT P6SM SCT070
     FM221300 30010G24KT P6SM SCT250=



000
FTUS41 KCTP 211737
TAFIPT
TAF
KIPT 211737Z 2118/2218 VRB02KT P6SM OVC035
     FM212000 17004KT P6SM BKN050
     FM220300 29004KT P6SM SCT090
     FM221400 27010G24KT P6SM SCT250=



000
FTUS41 KCTP 211737
TAFBFD
TAF
KBFD 211737Z 2118/2218 VRB05KT P6SM SCT035 BKN045
     FM220000 27005KT P6SM SCT070
     FM221300 30010G24KT P6SM SCT250=



000
FTUS41 KCTP 211737
TAFUNV
TAF
KUNV 211737Z 2118/2218 VRB03KT P6SM OVC035
     FM212100 12003KT P6SM BKN040
     FM220100 28004KT P6SM SCT070
     FM221400 28010G24KT P6SM SCT250=



000
FTUS41 KCTP 211737
TAFMDT
TAF
KMDT 211737Z 2118/2218 19008KT P6SM OVC045
     FM212100 14006KT P6SM BKN050
     FM220600 31007KT P6SM SCT050
     FM221400 30012G25KT P6SM SCT250=



000
FTUS41 KCTP 211737
TAFAOO
TAF
KAOO 211737Z 2118/2218 15007KT P6SM OVC015
     FM212100 VRB03KT P6SM BKN025
     FM220100 29005KT P6SM SCT070
     FM221400 29010G24KT P6SM SCT250=



000
FTUS41 KCTP 211737
TAFJST
TAF
KJST 211737Z 2118/2218 15009KT P6SM OVC008
     FM212000 29005KT P6SM OVC015
     FM220100 29007KT P6SM SCT060
     FM221300 29012G24KT P6SM BKN050=



000
FTUS41 KCTP 211610 AAA
TAFBFD
TAF AMD
KBFD 211610Z 2116/2212 VRB05KT P6SM BKN045
     FM220000 27005KT P6SM SCT070=



000
FTUS41 KCTP 211610 AAA
TAFJST
TAF AMD
KJST 211610Z 2116/2212 15009KT P6SM OVC007
     FM211800 29005KT P6SM OVC025
     FM220100 29007KT P6SM SCT060=



000
FTUS41 KCTP 211610 AAA
TAFAOO
TAF AMD
KAOO 211610Z 2116/2212 14004KT 5SM BR SCT007 OVC015
     FM211900 VRB03KT P6SM BKN035
     FM220100 29005KT P6SM SCT070=



000
FTUS41 KCTP 211610 AAA
TAFIPT
TAF AMD
KIPT 211610Z 2116/2212 VRB02KT P6SM OVC060
     FM211900 17004KT P6SM BKN070
     FM220300 29004KT P6SM SCT090=



000
FTUS41 KCTP 211610 AAA
TAFBFD
TAF AMD
KBFD 211610Z 2116/2212 VRB05KT P6SM BKN045
     FM220000 27005KT P6SM SCT070=



000
FTUS41 KCTP 211610 AAA
TAFMDT
TAF AMD
KMDT 211610Z 2116/2212 21008KT P6SM VCSH BKN050 OVC070
     FM211900 VRB03KT P6SM BKN050
     FM220600 31007KT P6SM SCT050=



000
FTUS41 KCTP 211610 AAA
TAFMDT
TAF AMD
KMDT 211610Z 2116/2212 21008KT P6SM VCSH BKN050 OVC070
     FM211900 VRB03KT P6SM BKN050
     FM220600 31007KT P6SM SCT050=



000
FTUS41 KCTP 211610 AAA
TAFAOO
TAF AMD
KAOO 211610Z 2116/2212 14004KT 5SM BR SCT007 OVC015
     FM211900 VRB03KT P6SM BKN035
     FM220100 29005KT P6SM SCT070=



000
FTUS41 KCTP 211610 AAA
TAFJST
TAF AMD
KJST 211610Z 2116/2212 15009KT P6SM OVC007
     FM211800 29005KT P6SM OVC025
     FM220100 29007KT P6SM SCT060=



000
FTUS41 KCTP 211610 AAA
TAFIPT
TAF AMD
KIPT 211610Z 2116/2212 VRB02KT P6SM OVC060
     FM211900 17004KT P6SM BKN070
     FM220300 29004KT P6SM SCT090=



000
FTUS41 KCTP 211610 AAA
TAFUNV
TAF AMD
KUNV 211610Z 2116/2212 VRB04KT P6SM OVC035
     FM211900 12003KT P6SM BKN050
     FM220100 28004KT P6SM SCT070=



000
FTUS41 KCTP 211610 AAA
TAFJST
TAF AMD
KJST 211610Z 2116/2212 15009KT P6SM OVC007
     FM211800 29005KT P6SM OVC025
     FM220100 29007KT P6SM SCT060=



000
FTUS41 KCTP 211610 AAA
TAFBFD
TAF AMD
KBFD 211610Z 2116/2212 VRB05KT P6SM BKN045
     FM220000 27005KT P6SM SCT070=



000
FTUS41 KCTP 211610 AAA
TAFMDT
TAF AMD
KMDT 211610Z 2116/2212 21008KT P6SM VCSH BKN050 OVC070
     FM211900 VRB03KT P6SM BKN050
     FM220600 31007KT P6SM SCT050=



000
FTUS41 KCTP 211610 AAA
TAFAOO
TAF AMD
KAOO 211610Z 2116/2212 14004KT 5SM BR SCT007 OVC015
     FM211900 VRB03KT P6SM BKN035
     FM220100 29005KT P6SM SCT070=



000
FTUS41 KCTP 211610 AAA
TAFUNV
TAF AMD
KUNV 211610Z 2116/2212 VRB04KT P6SM OVC035
     FM211900 12003KT P6SM BKN050
     FM220100 28004KT P6SM SCT070=



000
FTUS41 KCTP 211610 AAA
TAFIPT
TAF AMD
KIPT 211610Z 2116/2212 VRB02KT P6SM OVC060
     FM211900 17004KT P6SM BKN070
     FM220300 29004KT P6SM SCT090=



000
FTUS41 KCTP 211610 AAA
TAFAOO
TAF AMD
KAOO 211610Z 2116/2212 14004KT 5SM BR SCT007 OVC015
     FM211900 VRB03KT P6SM BKN035
     FM220100 29005KT P6SM SCT070=



000
FTUS41 KCTP 211610 AAA
TAFUNV
TAF AMD
KUNV 211610Z 2116/2212 VRB04KT P6SM OVC035
     FM211900 12003KT P6SM BKN050
     FM220100 28004KT P6SM SCT070=



000
FTUS41 KCTP 211610 AAA
TAFJST
TAF AMD
KJST 211610Z 2116/2212 15009KT P6SM OVC007
     FM211800 29005KT P6SM OVC025
     FM220100 29007KT P6SM SCT060=



000
FTUS41 KCTP 211610 AAA
TAFIPT
TAF AMD
KIPT 211610Z 2116/2212 VRB02KT P6SM OVC060
     FM211900 17004KT P6SM BKN070
     FM220300 29004KT P6SM SCT090=



000
FTUS41 KCTP 211610 AAA
TAFUNV
TAF AMD
KUNV 211610Z 2116/2212 VRB04KT P6SM OVC035
     FM211900 12003KT P6SM BKN050
     FM220100 28004KT P6SM SCT070=



000
FTUS41 KCTP 211610 AAA
TAFBFD
TAF AMD
KBFD 211610Z 2116/2212 VRB05KT P6SM BKN045
     FM220000 27005KT P6SM SCT070=



000
FTUS41 KCTP 211610 AAA
TAFMDT
TAF AMD
KMDT 211610Z 2116/2212 21008KT P6SM VCSH BKN050 OVC070
     FM211900 VRB03KT P6SM BKN050
     FM220600 31007KT P6SM SCT050=



000
FTUS41 KCTP 211132
TAFIPT
TAF
KIPT 211132Z 2112/2212 VRB02KT P6SM -SHRA OVC050
     FM211400 VRB03KT P6SM OVC045
     FM220300 29004KT P6SM SCT090=



000
FTUS41 KCTP 211132
TAFJST
TAF
KJST 211132Z 2112/2212 07003KT P6SM -RA OVC050
     FM211300 14004KT P6SM SCT008 OVC015
     FM220100 29007KT P6SM SCT060=



000
FTUS41 KCTP 211132
TAFUNV
TAF
KUNV 211132Z 2112/2212 04002KT P6SM -SHRA OVC045
     FM211500 12003KT P6SM OVC030
     FM220100 28004KT P6SM SCT070=



000
FTUS41 KCTP 211132
TAFMDT
TAF
KMDT 211132Z 2112/2212 VRB02KT P6SM VCSH OVC070
     FM211400 VRB03KT P6SM OVC045
     FM220600 31007KT P6SM SCT050=



000
FTUS41 KCTP 211132
TAFAOO
TAF
KAOO 211132Z 2112/2212 05002KT P6SM -RA OVC050
     FM211330 14003KT P6SM OVC020
     FM220100 29005KT P6SM SCT070=



000
FTUS41 KCTP 211132
TAFAOO
TAF
KAOO 211132Z 2112/2212 05002KT P6SM -RA OVC050
     FM211330 14003KT P6SM OVC020
     FM220100 29005KT P6SM SCT070=



000
FTUS41 KCTP 211132
TAFUNV
TAF
KUNV 211132Z 2112/2212 04002KT P6SM -SHRA OVC045
     FM211500 12003KT P6SM OVC030
     FM220100 28004KT P6SM SCT070=



000
FTUS41 KCTP 211132
TAFMDT
TAF
KMDT 211132Z 2112/2212 VRB02KT P6SM VCSH OVC070
     FM211400 VRB03KT P6SM OVC045
     FM220600 31007KT P6SM SCT050=



000
FTUS41 KCTP 211132
TAFJST
TAF
KJST 211132Z 2112/2212 07003KT P6SM -RA OVC050
     FM211300 14004KT P6SM SCT008 OVC015
     FM220100 29007KT P6SM SCT060=



000
FTUS41 KCTP 211132
TAFBFD
TAF
KBFD 211132Z 2112/2212 VRB04KT P6SM OVC050
     FM220000 27005KT P6SM SCT070=



000
FTUS41 KCTP 211132
TAFAOO
TAF
KAOO 211132Z 2112/2212 05002KT P6SM -RA OVC050
     FM211330 14003KT P6SM OVC020
     FM220100 29005KT P6SM SCT070=



000
FTUS41 KCTP 211132
TAFMDT
TAF
KMDT 211132Z 2112/2212 VRB02KT P6SM VCSH OVC070
     FM211400 VRB03KT P6SM OVC045
     FM220600 31007KT P6SM SCT050=



000
FTUS41 KCTP 211132
TAFBFD
TAF
KBFD 211132Z 2112/2212 VRB04KT P6SM OVC050
     FM220000 27005KT P6SM SCT070=



000
FTUS41 KCTP 211132
TAFIPT
TAF
KIPT 211132Z 2112/2212 VRB02KT P6SM -SHRA OVC050
     FM211400 VRB03KT P6SM OVC045
     FM220300 29004KT P6SM SCT090=



000
FTUS41 KCTP 211132
TAFUNV
TAF
KUNV 211132Z 2112/2212 04002KT P6SM -SHRA OVC045
     FM211500 12003KT P6SM OVC030
     FM220100 28004KT P6SM SCT070=



000
FTUS41 KCTP 211132
TAFBFD
TAF
KBFD 211132Z 2112/2212 VRB04KT P6SM OVC050
     FM220000 27005KT P6SM SCT070=



000
FTUS41 KCTP 211132
TAFIPT
TAF
KIPT 211132Z 2112/2212 VRB02KT P6SM -SHRA OVC050
     FM211400 VRB03KT P6SM OVC045
     FM220300 29004KT P6SM SCT090=



000
FTUS41 KCTP 211132
TAFJST
TAF
KJST 211132Z 2112/2212 07003KT P6SM -RA OVC050
     FM211300 14004KT P6SM SCT008 OVC015
     FM220100 29007KT P6SM SCT060=



000
FTUS41 KCTP 210934 AAA
TAFMDT
TAF AMD
KMDT 210934Z 2110/2206 VRB02KT P6SM VCSH OVC070
     FM211400 VRB03KT P6SM OVC045=



000
FTUS41 KCTP 210934 AAA
TAFMDT
TAF AMD
KMDT 210934Z 2110/2206 VRB02KT P6SM VCSH OVC070
     FM211400 VRB03KT P6SM OVC045=



000
FTUS41 KCTP 210930 AAA
TAFIPT
TAF AMD
KIPT 210930Z 2110/2206 VRB02KT P6SM OVC100
     FM211130 VRB02KT P6SM VCSH OVC050
     FM211400 VRB03KT P6SM OVC045
     FM220300 29004KT P6SM SCT090=



000
FTUS41 KCTP 210930 AAA
TAFIPT
TAF AMD
KIPT 210930Z 2110/2206 VRB02KT P6SM OVC100
     FM211130 VRB02KT P6SM VCSH OVC050
     FM211400 VRB03KT P6SM OVC045
     FM220300 29004KT P6SM SCT090=



000
FTUS41 KCTP 210929 AAA
TAFUNV
TAF AMD
KUNV 210929Z 2109/2206 04002KT P6SM VCSH OVC060
     FM211500 12003KT P6SM BKN030 OVC050
     FM220100 28004KT P6SM SCT070=



000
FTUS41 KCTP 210929 AAA
TAFUNV
TAF AMD
KUNV 210929Z 2109/2206 04002KT P6SM VCSH OVC060
     FM211500 12003KT P6SM BKN030 OVC050
     FM220100 28004KT P6SM SCT070=



000
FTUS41 KCTP 210927 AAA
TAFAOO
TAF AMD
KAOO 210927Z 2109/2206 05002KT P6SM VCSH OVC060
     FM211330 14003KT P6SM OVC020
     FM220100 29005KT P6SM SCT070=



000
FTUS41 KCTP 210927 AAB
TAFJST
TAF AMD
KJST 210927Z 2109/2206 07003KT P6SM -SHRA OVC050
     FM211300 14004KT P6SM BKN015 OVC040
     FM220100 29007KT P6SM SCT060=



000
FTUS41 KCTP 210927 AAB
TAFJST
TAF AMD
KJST 210927Z 2109/2206 07003KT P6SM -SHRA OVC050
     FM211300 14004KT P6SM BKN015 OVC040
     FM220100 29007KT P6SM SCT060=



000
FTUS41 KCTP 210926 AAA
TAFJST
TAF AMD
KJST 210926Z 2109/2206 07003KT P6SM -SHRA OVC070
     FM211300 14004KT P6SM BKN015 OVC040
     FM220100 29007KT P6SM SCT060=



000
FTUS41 KCTP 210913 AAA
TAFBFD
TAF AMD
KBFD 210913Z 2109/2206 VRB04KT P6SM OVC050
     FM220000 27005KT P6SM SCT070=



000
FTUS41 KCTP 210913 AAA
TAFBFD
TAF AMD
KBFD 210913Z 2109/2206 VRB04KT P6SM OVC050
     FM220000 27005KT P6SM SCT070=



000
FTUS41 KCTP 210913 AAA
TAFBFD
TAF AMD
KBFD 210913Z 2109/2206 VRB04KT P6SM OVC050
     FM220000 27005KT P6SM SCT070=



000
FTUS41 KCTP 210535
TAFAOO
TAF
KAOO 210535Z 2106/2206 05002KT P6SM VCSH OVC080
     FM211300 14003KT P6SM OVC020
     FM220100 29005KT P6SM SCT070=



000
FTUS41 KCTP 210535
TAFMDT
TAF
KMDT 210535Z 2106/2206 VRB02KT P6SM BKN120
     FM210900 VRB02KT P6SM VCSH OVC070
     FM211400 VRB03KT P6SM VCSH OVC045=



000
FTUS41 KCTP 210535
TAFJST
TAF
KJST 210535Z 2106/2206 07003KT P6SM -SHRA OVC070
     FM211300 14004KT P6SM BKN015 OVC040
     FM220100 29006KT P6SM SCT060=



000
FTUS41 KCTP 210535
TAFUNV
TAF
KUNV 210535Z 2106/2206 04002KT P6SM VCSH OVC080
     FM211300 12003KT P6SM BKN030 OVC050
     FM220100 28004KT P6SM SCT070=



000
FTUS41 KCTP 210535
TAFIPT
TAF
KIPT 210535Z 2106/2206 VRB02KT P6SM BKN150
     FM210900 VRB02KT P6SM VCSH OVC100
     FM211300 VRB03KT P6SM OVC045
     FM220300 29004KT P6SM SCT090=



000
FTUS41 KCTP 210535
TAFBFD
TAF
KBFD 210535Z 2106/2206 VRB03KT P6SM OVC090
     FM220000 27003KT P6SM SCT070=



000
FTUS41 KCTP 210535
TAFIPT
TAF
KIPT 210535Z 2106/2206 VRB02KT P6SM BKN150
     FM210900 VRB02KT P6SM VCSH OVC100
     FM211300 VRB03KT P6SM OVC045
     FM220300 29004KT P6SM SCT090=



000
FTUS41 KCTP 210535
TAFAOO
TAF
KAOO 210535Z 2106/2206 05002KT P6SM VCSH OVC080
     FM211300 14003KT P6SM OVC020
     FM220100 29005KT P6SM SCT070=



000
FTUS41 KCTP 210535
TAFMDT
TAF
KMDT 210535Z 2106/2206 VRB02KT P6SM BKN120
     FM210900 VRB02KT P6SM VCSH OVC070
     FM211400 VRB03KT P6SM VCSH OVC045=



000
FTUS41 KCTP 210535
TAFJST
TAF
KJST 210535Z 2106/2206 07003KT P6SM -SHRA OVC070
     FM211300 14004KT P6SM BKN015 OVC040
     FM220100 29006KT P6SM SCT060=



000
FTUS41 KCTP 210535
TAFBFD
TAF
KBFD 210535Z 2106/2206 VRB03KT P6SM OVC090
     FM220000 27003KT P6SM SCT070=



000
FTUS41 KCTP 210535
TAFUNV
TAF
KUNV 210535Z 2106/2206 04002KT P6SM VCSH OVC080
     FM211300 12003KT P6SM BKN030 OVC050
     FM220100 28004KT P6SM SCT070=



000
FTUS41 KCTP 210312 AAA
TAFMDT
TAF AMD
KMDT 210312Z 2103/2124 VRB03KT P6SM BKN120 BKN250
     FM211200 VRB03KT P6SM VCSH OVC040=



000
FTUS41 KCTP 210312 AAA
TAFBFD
TAF AMD
KBFD 210312Z 2103/2124 VRB03KT P6SM BKN250
     FM210900 VRB03KT P6SM OVC050=



000
FTUS41 KCTP 210312 AAA
TAFAOO
TAF AMD
KAOO 210312Z 2103/2124 VRB03KT P6SM BKN120 BKN250
     FM211500 14003KT P6SM -RA OVC020=



000
FTUS41 KCTP 210312 AAA
TAFIPT
TAF AMD
KIPT 210312Z 2103/2124 35003KT P6SM SCT120 BKN250
     FM211200 VRB03KT P6SM OVC060=



000
FTUS41 KCTP 210312 AAA
TAFAOO
TAF AMD
KAOO 210312Z 2103/2124 VRB03KT P6SM BKN120 BKN250
     FM211500 14003KT P6SM -RA OVC020=



000
FTUS41 KCTP 210312 AAA
TAFMDT
TAF AMD
KMDT 210312Z 2103/2124 VRB03KT P6SM BKN120 BKN250
     FM211200 VRB03KT P6SM VCSH OVC040=



000
FTUS41 KCTP 210312 AAA
TAFJST
TAF AMD
KJST 210312Z 2103/2124 30003KT P6SM BKN100 BKN250
     FM211200 12004KT P6SM -RA OVC025=



000
FTUS41 KCTP 210312 AAA
TAFUNV
TAF AMD
KUNV 210312Z 2103/2124 VRB03KT P6SM BKN120 BKN250
     FM211100 VRB03KT P6SM -RA OVC060=



000
FTUS41 KCTP 210312 AAA
TAFBFD
TAF AMD
KBFD 210312Z 2103/2124 VRB03KT P6SM BKN250
     FM210900 VRB03KT P6SM OVC050=



000
FTUS41 KCTP 210312 AAA
TAFUNV
TAF AMD
KUNV 210312Z 2103/2124 VRB03KT P6SM BKN120 BKN250
     FM211100 VRB03KT P6SM -RA OVC060=



000
FTUS41 KCTP 210312 AAA
TAFIPT
TAF AMD
KIPT 210312Z 2103/2124 35003KT P6SM SCT120 BKN250
     FM211200 VRB03KT P6SM OVC060=



000
FTUS41 KCTP 210312 AAA
TAFJST
TAF AMD
KJST 210312Z 2103/2124 30003KT P6SM BKN100 BKN250
     FM211200 12004KT P6SM -RA OVC025=



000
FTUS41 KCTP 210312 AAA
TAFMDT
TAF AMD
KMDT 210312Z 2103/2124 VRB03KT P6SM BKN120 BKN250
     FM211200 VRB03KT P6SM VCSH OVC040=



000
FTUS41 KCTP 210312 AAA
TAFAOO
TAF AMD
KAOO 210312Z 2103/2124 VRB03KT P6SM BKN120 BKN250
     FM211500 14003KT P6SM -RA OVC020=



000
FTUS41 KCTP 210312 AAA
TAFUNV
TAF AMD
KUNV 210312Z 2103/2124 VRB03KT P6SM BKN120 BKN250
     FM211100 VRB03KT P6SM -RA OVC060=



000
FTUS41 KCTP 210312 AAA
TAFBFD
TAF AMD
KBFD 210312Z 2103/2124 VRB03KT P6SM BKN250
     FM210900 VRB03KT P6SM OVC050=



000
FTUS41 KCTP 210312 AAA
TAFAOO
TAF AMD
KAOO 210312Z 2103/2124 VRB03KT P6SM BKN120 BKN250
     FM211500 14003KT P6SM -RA OVC020=



000
FTUS41 KCTP 210312 AAA
TAFBFD
TAF AMD
KBFD 210312Z 2103/2124 VRB03KT P6SM BKN250
     FM210900 VRB03KT P6SM OVC050=



000
FTUS41 KCTP 210312 AAA
TAFIPT
TAF AMD
KIPT 210312Z 2103/2124 35003KT P6SM SCT120 BKN250
     FM211200 VRB03KT P6SM OVC060=



000
FTUS41 KCTP 210312 AAA
TAFMDT
TAF AMD
KMDT 210312Z 2103/2124 VRB03KT P6SM BKN120 BKN250
     FM211200 VRB03KT P6SM VCSH OVC040=



000
FTUS41 KCTP 210312 AAA
TAFUNV
TAF AMD
KUNV 210312Z 2103/2124 VRB03KT P6SM BKN120 BKN250
     FM211100 VRB03KT P6SM -RA OVC060=



000
FTUS41 KCTP 210312 AAA
TAFIPT
TAF AMD
KIPT 210312Z 2103/2124 35003KT P6SM SCT120 BKN250
     FM211200 VRB03KT P6SM OVC060=



000
FTUS41 KCTP 210312 AAA
TAFJST
TAF AMD
KJST 210312Z 2103/2124 30003KT P6SM BKN100 BKN250
     FM211200 12004KT P6SM -RA OVC025=



000
FTUS41 KCTP 210312 AAA
TAFJST
TAF AMD
KJST 210312Z 2103/2124 30003KT P6SM BKN100 BKN250
     FM211200 12004KT P6SM -RA OVC025=



000
FTUS41 KCTP 202325
TAFAOO
TAF
KAOO 202325Z 2100/2124 31010G15KT P6SM SCT035 BKN250
     FM210400 34003KT P6SM BKN120
     FM211500 14003KT P6SM VCSH OVC020=



000
FTUS41 KCTP 202325
TAFJST
TAF
KJST 202325Z 2100/2124 30010KT P6SM SCT035 BKN250
     FM210300 VRB03KT P6SM BKN120
     FM211200 12004KT P6SM VCSH OVC025=



000
FTUS41 KCTP 202325
TAFMDT
TAF
KMDT 202325Z 2100/2124 30010KT P6SM SCT050 BKN250
     FM210300 33004KT P6SM BKN120
     FM211200 VRB03KT P6SM VCSH OVC050=



000
FTUS41 KCTP 202325
TAFJST
TAF
KJST 202325Z 2100/2124 30010KT P6SM SCT035 BKN250
     FM210300 VRB03KT P6SM BKN120
     FM211200 12004KT P6SM VCSH OVC025=



000
FTUS41 KCTP 202325
TAFUNV
TAF
KUNV 202325Z 2100/2124 VRB03KT P6SM SCT035 BKN250
     FM210300 VRB03KT P6SM BKN080
     FM211800 19004KT P6SM OVC050=



000
FTUS41 KCTP 202325
TAFAOO
TAF
KAOO 202325Z 2100/2124 31010G15KT P6SM SCT035 BKN250
     FM210400 34003KT P6SM BKN120
     FM211500 14003KT P6SM VCSH OVC020=



000
FTUS41 KCTP 202325
TAFBFD
TAF
KBFD 202325Z 2100/2124 32008KT P6SM SCT035 BKN250
     FM210600 VRB03KT P6SM OVC050=



000
FTUS41 KCTP 202325
TAFIPT
TAF
KIPT 202325Z 2100/2124 35006KT P6SM SCT045 BKN250
     FM210500 VRB03KT P6SM BKN090 OVC250=



000
FTUS41 KCTP 202325
TAFJST
TAF
KJST 202325Z 2100/2124 30010KT P6SM SCT035 BKN250
     FM210300 VRB03KT P6SM BKN120
     FM211200 12004KT P6SM VCSH OVC025=



000
FTUS41 KCTP 202325
TAFAOO
TAF
KAOO 202325Z 2100/2124 31010G15KT P6SM SCT035 BKN250
     FM210400 34003KT P6SM BKN120
     FM211500 14003KT P6SM VCSH OVC020=



000
FTUS41 KCTP 202325
TAFBFD
TAF
KBFD 202325Z 2100/2124 32008KT P6SM SCT035 BKN250
     FM210600 VRB03KT P6SM OVC050=



000
FTUS41 KCTP 202325
TAFIPT
TAF
KIPT 202325Z 2100/2124 35006KT P6SM SCT045 BKN250
     FM210500 VRB03KT P6SM BKN090 OVC250=



000
FTUS41 KCTP 202325
TAFUNV
TAF
KUNV 202325Z 2100/2124 VRB03KT P6SM SCT035 BKN250
     FM210300 VRB03KT P6SM BKN080
     FM211800 19004KT P6SM OVC050=



000
FTUS41 KCTP 202325
TAFMDT
TAF
KMDT 202325Z 2100/2124 30010KT P6SM SCT050 BKN250
     FM210300 33004KT P6SM BKN120
     FM211200 VRB03KT P6SM VCSH OVC050=



000
FTUS41 KCTP 202325
TAFJST
TAF
KJST 202325Z 2100/2124 30010KT P6SM SCT035 BKN250
     FM210300 VRB03KT P6SM BKN120
     FM211200 12004KT P6SM VCSH OVC025=



000
FTUS41 KCTP 202325
TAFUNV
TAF
KUNV 202325Z 2100/2124 VRB03KT P6SM SCT035 BKN250
     FM210300 VRB03KT P6SM BKN080
     FM211800 19004KT P6SM OVC050=



000
FTUS41 KCTP 202325
TAFAOO
TAF
KAOO 202325Z 2100/2124 31010G15KT P6SM SCT035 BKN250
     FM210400 34003KT P6SM BKN120
     FM211500 14003KT P6SM VCSH OVC020=



000
FTUS41 KCTP 202325
TAFBFD
TAF
KBFD 202325Z 2100/2124 32008KT P6SM SCT035 BKN250
     FM210600 VRB03KT P6SM OVC050=



000
FTUS41 KCTP 202325
TAFIPT
TAF
KIPT 202325Z 2100/2124 35006KT P6SM SCT045 BKN250
     FM210500 VRB03KT P6SM BKN090 OVC250=



000
FTUS41 KCTP 202325
TAFMDT
TAF
KMDT 202325Z 2100/2124 30010KT P6SM SCT050 BKN250
     FM210300 33004KT P6SM BKN120
     FM211200 VRB03KT P6SM VCSH OVC050=



000
FTUS41 KCTP 202325
TAFBFD
TAF
KBFD 202325Z 2100/2124 32008KT P6SM SCT035 BKN250
     FM210600 VRB03KT P6SM OVC050=



000
FTUS41 KCTP 202325
TAFIPT
TAF
KIPT 202325Z 2100/2124 35006KT P6SM SCT045 BKN250
     FM210500 VRB03KT P6SM BKN090 OVC250=



000
FTUS41 KCTP 202325
TAFUNV
TAF
KUNV 202325Z 2100/2124 VRB03KT P6SM SCT035 BKN250
     FM210300 VRB03KT P6SM BKN080
     FM211800 19004KT P6SM OVC050=



000
FTUS41 KCTP 202325
TAFMDT
TAF
KMDT 202325Z 2100/2124 30010KT P6SM SCT050 BKN250
     FM210300 33004KT P6SM BKN120
     FM211200 VRB03KT P6SM VCSH OVC050=



000
FTUS41 KCTP 202139 AAA
TAFMDT
TAF AMD
KMDT 202139Z 2022/2118 30012G18KT P6SM SCT050 BKN250
     FM210000 33004KT P6SM BKN120
     FM211200 18004KT P6SM VCSH OVC050=



000
FTUS41 KCTP 202139 AAB
TAFJST
TAF AMD
KJST 202139Z 2022/2118 30010G17KT P6SM SCT035
     FM210000 33004KT P6SM BKN120
     FM211200 12004KT P6SM VCSH OVC025=



000
FTUS41 KCTP 202139 AAA
TAFUNV
TAF AMD
KUNV 202139Z 2022/2118 32010G15KT P6SM SCT035 BKN250
     FM210300 36004KT P6SM BKN080
     FM210800 VRB03KT P6SM OVC050=



000
FTUS41 KCTP 202139 AAA
TAFIPT
TAF AMD
KIPT 202139Z 2022/2118 32010KT P6SM SCT045 BKN250
     FM210100 32004KT P6SM BKN090=



000
FTUS41 KCTP 202139 AAB
TAFJST
TAF AMD
KJST 202139Z 2022/2118 30010G17KT P6SM SCT035
     FM210000 33004KT P6SM BKN120
     FM211200 12004KT P6SM VCSH OVC025=



000
FTUS41 KCTP 202139 AAA
TAFAOO
TAF AMD
KAOO 202139Z 2022/2118 31010G18KT P6SM SCT035 BKN250
     FM210100 34003KT P6SM BKN120
     FM210600 VRB03KT P6SM OVC050=



000
FTUS41 KCTP 202139 AAB
TAFBFD
TAF AMD
KBFD 202139Z 2022/2118 32008G14KT P6SM SCT035
     FM210200 00000KT P6SM OVC050=



000
FTUS41 KCTP 202139 AAA
TAFIPT
TAF AMD
KIPT 202139Z 2022/2118 32010KT P6SM SCT045 BKN250
     FM210100 32004KT P6SM BKN090=



000
FTUS41 KCTP 202139 AAA
TAFAOO
TAF AMD
KAOO 202139Z 2022/2118 31010G18KT P6SM SCT035 BKN250
     FM210100 34003KT P6SM BKN120
     FM210600 VRB03KT P6SM OVC050=



000
FTUS41 KCTP 202139 AAA
TAFUNV
TAF AMD
KUNV 202139Z 2022/2118 32010G15KT P6SM SCT035 BKN250
     FM210300 36004KT P6SM BKN080
     FM210800 VRB03KT P6SM OVC050=



000
FTUS41 KCTP 202139 AAA
TAFMDT
TAF AMD
KMDT 202139Z 2022/2118 30012G18KT P6SM SCT050 BKN250
     FM210000 33004KT P6SM BKN120
     FM211200 18004KT P6SM VCSH OVC050=



000
FTUS41 KCTP 202139 AAA
TAFAOO
TAF AMD
KAOO 202139Z 2022/2118 31010G18KT P6SM SCT035 BKN250
     FM210100 34003KT P6SM BKN120
     FM210600 VRB03KT P6SM OVC050=



000
FTUS41 KCTP 202139 AAB
TAFBFD
TAF AMD
KBFD 202139Z 2022/2118 32008G14KT P6SM SCT035
     FM210200 00000KT P6SM OVC050=



000
FTUS41 KCTP 202139 AAA
TAFMDT
TAF AMD
KMDT 202139Z 2022/2118 30012G18KT P6SM SCT050 BKN250
     FM210000 33004KT P6SM BKN120
     FM211200 18004KT P6SM VCSH OVC050=



000
FTUS41 KCTP 202139 AAA
TAFIPT
TAF AMD
KIPT 202139Z 2022/2118 32010KT P6SM SCT045 BKN250
     FM210100 32004KT P6SM BKN090=



000
FTUS41 KCTP 202139 AAA
TAFUNV
TAF AMD
KUNV 202139Z 2022/2118 32010G15KT P6SM SCT035 BKN250
     FM210300 36004KT P6SM BKN080
     FM210800 VRB03KT P6SM OVC050=



000
FTUS41 KCTP 202139 AAB
TAFJST
TAF AMD
KJST 202139Z 2022/2118 30010G17KT P6SM SCT035
     FM210000 33004KT P6SM BKN120
     FM211200 12004KT P6SM VCSH OVC025=



000
FTUS41 KCTP 202139 AAB
TAFJST
TAF AMD
KJST 202139Z 2022/2118 30010G17KT P6SM SCT035
     FM210000 33004KT P6SM BKN120
     FM211200 12004KT P6SM VCSH OVC025=



000
FTUS41 KCTP 202139 AAA
TAFUNV
TAF AMD
KUNV 202139Z 2022/2118 32010G15KT P6SM SCT035 BKN250
     FM210300 36004KT P6SM BKN080
     FM210800 VRB03KT P6SM OVC050=



000
FTUS41 KCTP 202139 AAA
TAFAOO
TAF AMD
KAOO 202139Z 2022/2118 31010G18KT P6SM SCT035 BKN250
     FM210100 34003KT P6SM BKN120
     FM210600 VRB03KT P6SM OVC050=



000
FTUS41 KCTP 202139 AAB
TAFBFD
TAF AMD
KBFD 202139Z 2022/2118 32008G14KT P6SM SCT035
     FM210200 00000KT P6SM OVC050=



000
FTUS41 KCTP 202139 AAA
TAFIPT
TAF AMD
KIPT 202139Z 2022/2118 32010KT P6SM SCT045 BKN250
     FM210100 32004KT P6SM BKN090=



000
FTUS41 KCTP 202139 AAA
TAFMDT
TAF AMD
KMDT 202139Z 2022/2118 30012G18KT P6SM SCT050 BKN250
     FM210000 33004KT P6SM BKN120
     FM211200 18004KT P6SM VCSH OVC050=



000
FTUS41 KCTP 202139 AAB
TAFBFD
TAF AMD
KBFD 202139Z 2022/2118 32008G14KT P6SM SCT035
     FM210200 00000KT P6SM OVC050=



000
FTUS41 KCTP 202027 AAA
TAFJST
TAF AMD
KJST 202027Z 2020/2118 30010G17KT P6SM SCT035
     FM210000 33004KT P6SM BKN120
     FM211200 12004KT P6SM OVC025=



000
FTUS41 KCTP 202027 AAA
TAFJST
TAF AMD
KJST 202027Z 2020/2118 30010G17KT P6SM SCT035
     FM210000 33004KT P6SM BKN120
     FM211200 12004KT P6SM OVC025=



000
FTUS41 KCTP 202027 AAA
TAFJST
TAF AMD
KJST 202027Z 2020/2118 30010G17KT P6SM SCT035
     FM210000 33004KT P6SM BKN120
     FM211200 12004KT P6SM OVC025=



000
FTUS41 KCTP 202026 AAA
TAFBFD
TAF AMD
KBFD 202026Z 2020/2118 32008G14KT P6SM SCT035
     FM210200 00000KT P6SM OVC050=



000
FTUS41 KCTP 202026 AAA
TAFBFD
TAF AMD
KBFD 202026Z 2020/2118 32008G14KT P6SM SCT035
     FM210200 00000KT P6SM OVC050=



000
FTUS41 KCTP 201733
TAFUNV
TAF
KUNV 201733Z 2018/2118 32009G20KT P6SM SCT035 BKN200
      TEMPO 2018/2020 BKN035
     FM210300 36004KT P6SM BKN080
     FM210800 VRB03KT P6SM OVC050=



000
FTUS41 KCTP 201733
TAFIPT
TAF
KIPT 201733Z 2018/2118 32010KT P6SM SCT045 BKN200
      TEMPO 2018/2020 BKN045
     FM210100 32004KT P6SM BKN090=



000
FTUS41 KCTP 201733
TAFBFD
TAF
KBFD 201733Z 2018/2118 32010G17KT P6SM BKN035
      TEMPO 2018/2020 SCT035
     FM210200 00000KT P6SM OVC050=



000
FTUS41 KCTP 201733
TAFUNV
TAF
KUNV 201733Z 2018/2118 32009G20KT P6SM SCT035 BKN200
      TEMPO 2018/2020 BKN035
     FM210300 36004KT P6SM BKN080
     FM210800 VRB03KT P6SM OVC050=



000
FTUS41 KCTP 201733
TAFJST
TAF
KJST 201733Z 2018/2118 31010G22KT P6SM BKN015 OVC025
     FM202200 VRB03KT P6SM BKN035
     FM210000 33004KT P6SM OVC050
     FM211200 12004KT P6SM OVC025=



000
FTUS41 KCTP 201733
TAFMDT
TAF
KMDT 201733Z 2018/2118 33012G24KT P6SM FEW050 BKN200
     FM210000 33004KT P6SM BKN120
     FM211200 18004KT P6SM VCSH OVC050=



000
FTUS41 KCTP 201733
TAFAOO
TAF
KAOO 201733Z 2018/2118 34012G24KT P6SM SCT035 BKN200
      TEMPO 2018/2020 BKN035
     FM210100 34003KT P6SM BKN120
     FM210600 VRB03KT P6SM OVC050=



000
FTUS41 KCTP 201733
TAFMDT
TAF
KMDT 201733Z 2018/2118 33012G24KT P6SM FEW050 BKN200
     FM210000 33004KT P6SM BKN120
     FM211200 18004KT P6SM VCSH OVC050=



000
FTUS41 KCTP 201733
TAFAOO
TAF
KAOO 201733Z 2018/2118 34012G24KT P6SM SCT035 BKN200
      TEMPO 2018/2020 BKN035
     FM210100 34003KT P6SM BKN120
     FM210600 VRB03KT P6SM OVC050=



000
FTUS41 KCTP 201733
TAFJST
TAF
KJST 201733Z 2018/2118 31010G22KT P6SM BKN015 OVC025
     FM202200 VRB03KT P6SM BKN035
     FM210000 33004KT P6SM OVC050
     FM211200 12004KT P6SM OVC025=



000
FTUS41 KCTP 201733
TAFIPT
TAF
KIPT 201733Z 2018/2118 32010KT P6SM SCT045 BKN200
      TEMPO 2018/2020 BKN045
     FM210100 32004KT P6SM BKN090=



000
FTUS41 KCTP 201733
TAFUNV
TAF
KUNV 201733Z 2018/2118 32009G20KT P6SM SCT035 BKN200
      TEMPO 2018/2020 BKN035
     FM210300 36004KT P6SM BKN080
     FM210800 VRB03KT P6SM OVC050=



000
FTUS41 KCTP 201733
TAFBFD
TAF
KBFD 201733Z 2018/2118 32010G17KT P6SM BKN035
      TEMPO 2018/2020 SCT035
     FM210200 00000KT P6SM OVC050=



000
FTUS41 KCTP 201733
TAFBFD
TAF
KBFD 201733Z 2018/2118 32010G17KT P6SM BKN035
      TEMPO 2018/2020 SCT035
     FM210200 00000KT P6SM OVC050=



000
FTUS41 KCTP 201733
TAFUNV
TAF
KUNV 201733Z 2018/2118 32009G20KT P6SM SCT035 BKN200
      TEMPO 2018/2020 BKN035
     FM210300 36004KT P6SM BKN080
     FM210800 VRB03KT P6SM OVC050=



000
FTUS41 KCTP 201733
TAFMDT
TAF
KMDT 201733Z 2018/2118 33012G24KT P6SM FEW050 BKN200
     FM210000 33004KT P6SM BKN120
     FM211200 18004KT P6SM VCSH OVC050=



000
FTUS41 KCTP 201733
TAFIPT
TAF
KIPT 201733Z 2018/2118 32010KT P6SM SCT045 BKN200
      TEMPO 2018/2020 BKN045
     FM210100 32004KT P6SM BKN090=



000
FTUS41 KCTP 201733
TAFAOO
TAF
KAOO 201733Z 2018/2118 34012G24KT P6SM SCT035 BKN200
      TEMPO 2018/2020 BKN035
     FM210100 34003KT P6SM BKN120
     FM210600 VRB03KT P6SM OVC050=



000
FTUS41 KCTP 201733
TAFJST
TAF
KJST 201733Z 2018/2118 31010G22KT P6SM BKN015 OVC025
     FM202200 VRB03KT P6SM BKN035
     FM210000 33004KT P6SM OVC050
     FM211200 12004KT P6SM OVC025=



000
FTUS41 KCTP 201733
TAFJST
TAF
KJST 201733Z 2018/2118 31010G22KT P6SM BKN015 OVC025
     FM202200 VRB03KT P6SM BKN035
     FM210000 33004KT P6SM OVC050
     FM211200 12004KT P6SM OVC025=



000
FTUS41 KCTP 201733
TAFMDT
TAF
KMDT 201733Z 2018/2118 33012G24KT P6SM FEW050 BKN200
     FM210000 33004KT P6SM BKN120
     FM211200 18004KT P6SM VCSH OVC050=



000
FTUS41 KCTP 201733
TAFBFD
TAF
KBFD 201733Z 2018/2118 32010G17KT P6SM BKN035
      TEMPO 2018/2020 SCT035
     FM210200 00000KT P6SM OVC050=



000
FTUS41 KCTP 201733
TAFIPT
TAF
KIPT 201733Z 2018/2118 32010KT P6SM SCT045 BKN200
      TEMPO 2018/2020 BKN045
     FM210100 32004KT P6SM BKN090=



000
FTUS41 KCTP 201733
TAFAOO
TAF
KAOO 201733Z 2018/2118 34012G24KT P6SM SCT035 BKN200
      TEMPO 2018/2020 BKN035
     FM210100 34003KT P6SM BKN120
     FM210600 VRB03KT P6SM OVC050=



000
FTUS41 KCTP 201527 AAB
TAFMDT
TAF AMD
KMDT 201527Z 2015/2112 33014G22KT P6SM BKN045
     FM201700 32012G25KT P6SM SCT050
     FM210000 32004KT P6SM BKN120=



000
FTUS41 KCTP 201527 AAA
TAFIPT
TAF AMD
KIPT 201527Z 2015/2112 30012G20KT P6SM OVC040
     FM210100 32004KT P6SM BKN090=



000
FTUS41 KCTP 201527 AAA
TAFUNV
TAF AMD
KUNV 201527Z 2015/2112 32009G20KT P6SM OVC035
     FM202200 32010G20KT P6SM SCT100
     FM210300 36004KT P6SM BKN080=



000
FTUS41 KCTP 201527 AAA
TAFUNV
TAF AMD
KUNV 201527Z 2015/2112 32009G20KT P6SM OVC035
     FM202200 32010G20KT P6SM SCT100
     FM210300 36004KT P6SM BKN080=



000
FTUS41 KCTP 201527 AAA
TAFJST
TAF AMD
KJST 201527Z 2015/2112 30010G22KT P6SM BKN015 OVC025
     FM201700 30011KT P6SM BKN035
     FM210000 33004KT P6SM BKN080=



000
FTUS41 KCTP 201527 AAB
TAFMDT
TAF AMD
KMDT 201527Z 2015/2112 33014G22KT P6SM BKN045
     FM201700 32012G25KT P6SM SCT050
     FM210000 32004KT P6SM BKN120=



000
FTUS41 KCTP 201527 AAA
TAFBFD
TAF AMD
KBFD 201527Z 2015/2112 30012G17KT P6SM OVC015
     FM201700 33010G15KT P6SM BKN035
     FM201900 35005KT P6SM BKN070=



000
FTUS41 KCTP 201527 AAA
TAFAOO
TAF AMD
KAOO 201527Z 2015/2112 32012G24KT P6SM OVC025
     FM201700 31010G20KT P6SM BKN035
     FM210100 34003KT P6SM BKN120=



000
FTUS41 KCTP 201527 AAA
TAFJST
TAF AMD
KJST 201527Z 2015/2112 30010G22KT P6SM BKN015 OVC025
     FM201700 30011KT P6SM BKN035
     FM210000 33004KT P6SM BKN080=



000
FTUS41 KCTP 201527 AAA
TAFIPT
TAF AMD
KIPT 201527Z 2015/2112 30012G20KT P6SM OVC040
     FM210100 32004KT P6SM BKN090=



000
FTUS41 KCTP 201527 AAA
TAFBFD
TAF AMD
KBFD 201527Z 2015/2112 30012G17KT P6SM OVC015
     FM201700 33010G15KT P6SM BKN035
     FM201900 35005KT P6SM BKN070=



000
FTUS41 KCTP 201527 AAA
TAFAOO
TAF AMD
KAOO 201527Z 2015/2112 32012G24KT P6SM OVC025
     FM201700 31010G20KT P6SM BKN035
     FM210100 34003KT P6SM BKN120=



000
FTUS41 KCTP 201255 AAA
TAFMDT
TAF AMD
KMDT 201255Z 2013/2112 32014G22KT P6SM OVC045
     FM201500 32012G25KT P6SM SCT050
     FM210000 32004KT P6SM BKN120=



000
FTUS41 KCTP 201255 AAA
TAFMDT
TAF AMD
KMDT 201255Z 2013/2112 32014G22KT P6SM OVC045
     FM201500 32012G25KT P6SM SCT050
     FM210000 32004KT P6SM BKN120=



000
FTUS41 KCTP 201255 AAA
TAFMDT
TAF AMD
KMDT 201255Z 2013/2112 32014G22KT P6SM OVC045
     FM201500 32012G25KT P6SM SCT050
     FM210000 32004KT P6SM BKN120=



000
FTUS41 KCTP 201138
TAFJST
TAF
KJST 201138Z 2012/2112 31011G18KT P6SM BKN015 OVC020
     FM201500 31013KT P6SM BKN025
     FM201700 30011KT P6SM SCT025 OVC150
     FM210000 33004KT P6SM BKN080=



000
FTUS41 KCTP 201138
TAFBFD
TAF
KBFD 201138Z 2012/2112 31011G19KT P6SM OVC013
     FM201400 33010G15KT P6SM BKN035
     FM201900 35005KT P6SM BKN070=



000
FTUS41 KCTP 201138
TAFBFD
TAF
KBFD 201138Z 2012/2112 31011G19KT P6SM OVC013
     FM201400 33010G15KT P6SM BKN035
     FM201900 35005KT P6SM BKN070=



000
FTUS41 KCTP 201138
TAFAOO
TAF
KAOO 201138Z 2012/2112 30007KT P6SM OVC022
     FM201400 31010G20KT P6SM SCT100
     FM210100 34003KT P6SM BKN120=



000
FTUS41 KCTP 201138
TAFJST
TAF
KJST 201138Z 2012/2112 31011G18KT P6SM BKN015 OVC020
     FM201500 31013KT P6SM BKN025
     FM201700 30011KT P6SM SCT025 OVC150
     FM210000 33004KT P6SM BKN080=



000
FTUS41 KCTP 201138
TAFUNV
TAF
KUNV 201138Z 2012/2112 32011G20KT P6SM BKN030 OVC035
     FM201400 32010G20KT P6SM SCT100
     FM210300 36004KT P6SM BKN080=



000
FTUS41 KCTP 201138
TAFUNV
TAF
KUNV 201138Z 2012/2112 32011G20KT P6SM BKN030 OVC035
     FM201400 32010G20KT P6SM SCT100
     FM210300 36004KT P6SM BKN080=



000
FTUS41 KCTP 201138
TAFIPT
TAF
KIPT 201138Z 2012/2112 32015G20KT P6SM OVC040
     FM210100 32004KT P6SM BKN090=



000
FTUS41 KCTP 201138
TAFMDT
TAF
KMDT 201138Z 2012/2112 32014G19KT P6SM BKN120
     FM210000 32004KT P6SM BKN120=



000
FTUS41 KCTP 201138
TAFAOO
TAF
KAOO 201138Z 2012/2112 30007KT P6SM OVC022
     FM201400 31010G20KT P6SM SCT100
     FM210100 34003KT P6SM BKN120=



000
FTUS41 KCTP 201138
TAFMDT
TAF
KMDT 201138Z 2012/2112 32014G19KT P6SM BKN120
     FM210000 32004KT P6SM BKN120=



000
FTUS41 KCTP 201138
TAFJST
TAF
KJST 201138Z 2012/2112 31011G18KT P6SM BKN015 OVC020
     FM201500 31013KT P6SM BKN025
     FM201700 30011KT P6SM SCT025 OVC150
     FM210000 33004KT P6SM BKN080=



000
FTUS41 KCTP 201138
TAFAOO
TAF
KAOO 201138Z 2012/2112 30007KT P6SM OVC022
     FM201400 31010G20KT P6SM SCT100
     FM210100 34003KT P6SM BKN120=



000
FTUS41 KCTP 201138
TAFBFD
TAF
KBFD 201138Z 2012/2112 31011G19KT P6SM OVC013
     FM201400 33010G15KT P6SM BKN035
     FM201900 35005KT P6SM BKN070=



000
FTUS41 KCTP 201138
TAFMDT
TAF
KMDT 201138Z 2012/2112 32014G19KT P6SM BKN120
     FM210000 32004KT P6SM BKN120=



000
FTUS41 KCTP 201138
TAFUNV
TAF
KUNV 201138Z 2012/2112 32011G20KT P6SM BKN030 OVC035
     FM201400 32010G20KT P6SM SCT100
     FM210300 36004KT P6SM BKN080=



000
FTUS41 KCTP 201138
TAFIPT
TAF
KIPT 201138Z 2012/2112 32015G20KT P6SM OVC040
     FM210100 32004KT P6SM BKN090=



000
FTUS41 KCTP 201138
TAFIPT
TAF
KIPT 201138Z 2012/2112 32015G20KT P6SM OVC040
     FM210100 32004KT P6SM BKN090=



000
FTUS41 KCTP 201138
TAFIPT
TAF
KIPT 201138Z 2012/2112 32015G20KT P6SM OVC040
     FM210100 32004KT P6SM BKN090=



000
FTUS41 KCTP 201138
TAFJST
TAF
KJST 201138Z 2012/2112 31011G18KT P6SM BKN015 OVC020
     FM201500 31013KT P6SM BKN025
     FM201700 30011KT P6SM SCT025 OVC150
     FM210000 33004KT P6SM BKN080=



000
FTUS41 KCTP 201138
TAFMDT
TAF
KMDT 201138Z 2012/2112 32014G19KT P6SM BKN120
     FM210000 32004KT P6SM BKN120=



000
FTUS41 KCTP 201138
TAFUNV
TAF
KUNV 201138Z 2012/2112 32011G20KT P6SM BKN030 OVC035
     FM201400 32010G20KT P6SM SCT100
     FM210300 36004KT P6SM BKN080=



000
FTUS41 KCTP 201138
TAFBFD
TAF
KBFD 201138Z 2012/2112 31011G19KT P6SM OVC013
     FM201400 33010G15KT P6SM BKN035
     FM201900 35005KT P6SM BKN070=



000
FTUS41 KCTP 201138
TAFAOO
TAF
KAOO 201138Z 2012/2112 30007KT P6SM OVC022
     FM201400 31010G20KT P6SM SCT100
     FM210100 34003KT P6SM BKN120=



000
FTUS41 KCTP 200850 AAA
TAFUNV
TAF AMD
KUNV 200850Z 2009/2106 28005KT P6SM OVC030
     FM201200 29010G20KT P6SM SCT025 BKN035
     FM201400 32010G20KT P6SM SCT100
     FM210300 36004KT P6SM BKN090=



000
FTUS41 KCTP 200850 AAA
TAFBFD
TAF AMD
KBFD 200850Z 2009/2106 32011KT P6SM SCT007 OVC016
      TEMPO 2009/2011 BKN007
     FM201100 32008G18KT P6SM SCT007 OVC016
     FM201200 32010G20KT P6SM FEW008 BKN015 OVC100
     FM201400 33010G15KT P6SM BKN035
     FM201900 35008KT P6SM BKN130=



000
FTUS41 KCTP 200850 AAA
TAFMDT
TAF AMD
KMDT 200850Z 2009/2106 34017KT P6SM SKC
     FM201200 31013G22KT P6SM SCT060
     FM210000 32004KT P6SM BKN120=



000
FTUS41 KCTP 200850 AAA
TAFIPT
TAF AMD
KIPT 200850Z 2009/2106 31009KT P6SM OVC040
     FM201200 29010G20KT P6SM SCT025 BKN035
     FM210100 32004KT P6SM BKN120=



000
FTUS41 KCTP 200850 AAA
TAFAOO
TAF AMD
KAOO 200850Z 2009/2106 32007KT P6SM BKN029
     FM201200 29010G20KT P6SM SCT025 BKN035
     FM201400 31010G20KT P6SM SCT100
     FM210100 34003KT P6SM BKN120=



000
FTUS41 KCTP 200850 AAA
TAFJST
TAF AMD
KJST 200850Z 2009/2106 31010KT P6SM OVC024
     FM201500 31013KT P6SM BKN025
     FM201700 30011KT P6SM SCT025 OVC150
     FM210000 33004KT P6SM BKN080=



000
FTUS41 KCTP 200850 AAA
TAFMDT
TAF AMD
KMDT 200850Z 2009/2106 34017KT P6SM SKC
     FM201200 31013G22KT P6SM SCT060
     FM210000 32004KT P6SM BKN120=



000
FTUS41 KCTP 200850 AAA
TAFIPT
TAF AMD
KIPT 200850Z 2009/2106 31009KT P6SM OVC040
     FM201200 29010G20KT P6SM SCT025 BKN035
     FM210100 32004KT P6SM BKN120=



000
FTUS41 KCTP 200850 AAA
TAFUNV
TAF AMD
KUNV 200850Z 2009/2106 28005KT P6SM OVC030
     FM201200 29010G20KT P6SM SCT025 BKN035
     FM201400 32010G20KT P6SM SCT100
     FM210300 36004KT P6SM BKN090=



000
FTUS41 KCTP 200850 AAA
TAFAOO
TAF AMD
KAOO 200850Z 2009/2106 32007KT P6SM BKN029
     FM201200 29010G20KT P6SM SCT025 BKN035
     FM201400 31010G20KT P6SM SCT100
     FM210100 34003KT P6SM BKN120=



000
FTUS41 KCTP 200850 AAA
TAFBFD
TAF AMD
KBFD 200850Z 2009/2106 32011KT P6SM SCT007 OVC016
      TEMPO 2009/2011 BKN007
     FM201100 32008G18KT P6SM SCT007 OVC016
     FM201200 32010G20KT P6SM FEW008 BKN015 OVC100
     FM201400 33010G15KT P6SM BKN035
     FM201900 35008KT P6SM BKN130=



000
FTUS41 KCTP 200850 AAA
TAFJST
TAF AMD
KJST 200850Z 2009/2106 31010KT P6SM OVC024
     FM201500 31013KT P6SM BKN025
     FM201700 30011KT P6SM SCT025 OVC150
     FM210000 33004KT P6SM BKN080=



000
FTUS41 KCTP 200547
TAFJST
TAF
KJST 200547Z 2006/2106 32010G15KT P6SM BKN021 BKN026 OVC030
     FM200800 31010G15KT P6SM SCT007 OVC020
     FM201500 31013KT P6SM BKN015
     FM201700 30011KT P6SM SCT025 OVC150
     FM210000 33004KT P6SM BKN080=



000
FTUS41 KCTP 200547
TAFAOO
TAF
KAOO 200547Z 2006/2106 33008KT P6SM OVC030
     FM200800 33012KT P6SM BKN025 OVC040
     FM201200 29010G20KT P6SM SCT025 BKN035
     FM201400 31010G20KT P6SM SCT100
     FM210100 34003KT P6SM BKN120=



000
FTUS41 KCTP 200547
TAFIPT
TAF
KIPT 200547Z 2006/2106 33008KT P6SM OVC040
     FM200800 33012KT P6SM BKN015 OVC040
     FM201200 29010G20KT P6SM SCT025 BKN035
     FM210100 32004KT P6SM BKN120=



000
FTUS41 KCTP 200547
TAFBFD
TAF
KBFD 200547Z 2006/2106 30009G17KT P6SM BKN008 BKN016 OVC024
     FM201000 31008G18KT P6SM SCT008 OVC016
      TEMPO 2010/2012 BKN008
     FM201200 30010G20KT P6SM FEW008 BKN015 OVC100
     FM201400 33010G15KT P6SM BKN035
     FM201900 35008KT P6SM BKN130=



000
FTUS41 KCTP 200547
TAFUNV
TAF
KUNV 200547Z 2006/2106 32010G14KT P6SM OVC040
     FM200800 33012G16KT P6SM BKN015 BKN025 OVC040
     FM201200 29010G20KT P6SM SCT025 BKN035
     FM201400 32010G20KT P6SM SCT100
     FM210300 36004KT P6SM BKN090=



000
FTUS41 KCTP 200547
TAFMDT
TAF
KMDT 200547Z 2006/2106 32016KT P6SM FEW030
     FM201200 31013G22KT P6SM SCT060
     FM210000 32004KT P6SM BKN120=



000
FTUS41 KCTP 200547
TAFMDT
TAF
KMDT 200547Z 2006/2106 32016KT P6SM FEW030
     FM201200 31013G22KT P6SM SCT060
     FM210000 32004KT P6SM BKN120=



000
FTUS41 KCTP 200547
TAFMDT
TAF
KMDT 200547Z 2006/2106 32016KT P6SM FEW030
     FM201200 31013G22KT P6SM SCT060
     FM210000 32004KT P6SM BKN120=



000
FTUS41 KCTP 200547
TAFUNV
TAF
KUNV 200547Z 2006/2106 32010G14KT P6SM OVC040
     FM200800 33012G16KT P6SM BKN015 BKN025 OVC040
     FM201200 29010G20KT P6SM SCT025 BKN035
     FM201400 32010G20KT P6SM SCT100
     FM210300 36004KT P6SM BKN090=



000
FTUS41 KCTP 200547
TAFBFD
TAF
KBFD 200547Z 2006/2106 30009G17KT P6SM BKN008 BKN016 OVC024
     FM201000 31008G18KT P6SM SCT008 OVC016
      TEMPO 2010/2012 BKN008
     FM201200 30010G20KT P6SM FEW008 BKN015 OVC100
     FM201400 33010G15KT P6SM BKN035
     FM201900 35008KT P6SM BKN130=



000
FTUS41 KCTP 200547
TAFJST
TAF
KJST 200547Z 2006/2106 32010G15KT P6SM BKN021 BKN026 OVC030
     FM200800 31010G15KT P6SM SCT007 OVC020
     FM201500 31013KT P6SM BKN015
     FM201700 30011KT P6SM SCT025 OVC150
     FM210000 33004KT P6SM BKN080=



000
FTUS41 KCTP 200547
TAFIPT
TAF
KIPT 200547Z 2006/2106 33008KT P6SM OVC040
     FM200800 33012KT P6SM BKN015 OVC040
     FM201200 29010G20KT P6SM SCT025 BKN035
     FM210100 32004KT P6SM BKN120=



000
FTUS41 KCTP 200547
TAFAOO
TAF
KAOO 200547Z 2006/2106 33008KT P6SM OVC030
     FM200800 33012KT P6SM BKN025 OVC040
     FM201200 29010G20KT P6SM SCT025 BKN035
     FM201400 31010G20KT P6SM SCT100
     FM210100 34003KT P6SM BKN120=



000
FTUS41 KCTP 200547
TAFIPT
TAF
KIPT 200547Z 2006/2106 33008KT P6SM OVC040
     FM200800 33012KT P6SM BKN015 OVC040
     FM201200 29010G20KT P6SM SCT025 BKN035
     FM210100 32004KT P6SM BKN120=



000
FTUS41 KCTP 200547
TAFBFD
TAF
KBFD 200547Z 2006/2106 30009G17KT P6SM BKN008 BKN016 OVC024
     FM201000 31008G18KT P6SM SCT008 OVC016
      TEMPO 2010/2012 BKN008
     FM201200 30010G20KT P6SM FEW008 BKN015 OVC100
     FM201400 33010G15KT P6SM BKN035
     FM201900 35008KT P6SM BKN130=



000
FTUS41 KCTP 200547
TAFAOO
TAF
KAOO 200547Z 2006/2106 33008KT P6SM OVC030
     FM200800 33012KT P6SM BKN025 OVC040
     FM201200 29010G20KT P6SM SCT025 BKN035
     FM201400 31010G20KT P6SM SCT100
     FM210100 34003KT P6SM BKN120=



000
FTUS41 KCTP 200547
TAFUNV
TAF
KUNV 200547Z 2006/2106 32010G14KT P6SM OVC040
     FM200800 33012G16KT P6SM BKN015 BKN025 OVC040
     FM201200 29010G20KT P6SM SCT025 BKN035
     FM201400 32010G20KT P6SM SCT100
     FM210300 36004KT P6SM BKN090=



000
FTUS41 KCTP 200547
TAFJST
TAF
KJST 200547Z 2006/2106 32010G15KT P6SM BKN021 BKN026 OVC030
     FM200800 31010G15KT P6SM SCT007 OVC020
     FM201500 31013KT P6SM BKN015
     FM201700 30011KT P6SM SCT025 OVC150
     FM210000 33004KT P6SM BKN080=



000
FTUS41 KCTP 200547
TAFIPT
TAF
KIPT 200547Z 2006/2106 33008KT P6SM OVC040
     FM200800 33012KT P6SM BKN015 OVC040
     FM201200 29010G20KT P6SM SCT025 BKN035
     FM210100 32004KT P6SM BKN120=



000
FTUS41 KCTP 200547
TAFMDT
TAF
KMDT 200547Z 2006/2106 32016KT P6SM FEW030
     FM201200 31013G22KT P6SM SCT060
     FM210000 32004KT P6SM BKN120=



000
FTUS41 KCTP 200547
TAFJST
TAF
KJST 200547Z 2006/2106 32010G15KT P6SM BKN021 BKN026 OVC030
     FM200800 31010G15KT P6SM SCT007 OVC020
     FM201500 31013KT P6SM BKN015
     FM201700 30011KT P6SM SCT025 OVC150
     FM210000 33004KT P6SM BKN080=



000
FTUS41 KCTP 200547
TAFBFD
TAF
KBFD 200547Z 2006/2106 30009G17KT P6SM BKN008 BKN016 OVC024
     FM201000 31008G18KT P6SM SCT008 OVC016
      TEMPO 2010/2012 BKN008
     FM201200 30010G20KT P6SM FEW008 BKN015 OVC100
     FM201400 33010G15KT P6SM BKN035
     FM201900 35008KT P6SM BKN130=



000
FTUS41 KCTP 200547
TAFUNV
TAF
KUNV 200547Z 2006/2106 32010G14KT P6SM OVC040
     FM200800 33012G16KT P6SM BKN015 BKN025 OVC040
     FM201200 29010G20KT P6SM SCT025 BKN035
     FM201400 32010G20KT P6SM SCT100
     FM210300 36004KT P6SM BKN090=



000
FTUS41 KCTP 200547
TAFAOO
TAF
KAOO 200547Z 2006/2106 33008KT P6SM OVC030
     FM200800 33012KT P6SM BKN025 OVC040
     FM201200 29010G20KT P6SM SCT025 BKN035
     FM201400 31010G20KT P6SM SCT100
     FM210100 34003KT P6SM BKN120=



000
FTUS41 KCTP 200327 AAC
TAFAOO
TAF AMD
KAOO 200327Z 2003/2024 30010G15KT P6SM BKN025 BKN035
     FM201400 31012G22KT P6SM SCT060=



000
FTUS41 KCTP 200327 AAC
TAFAOO
TAF AMD
KAOO 200327Z 2003/2024 30010G15KT P6SM BKN025 BKN035
     FM201400 31012G22KT P6SM SCT060=



000
FTUS41 KCTP 200327 AAC
TAFAOO
TAF AMD
KAOO 200327Z 2003/2024 30010G15KT P6SM BKN025 BKN035
     FM201400 31012G22KT P6SM SCT060=



000
FTUS41 KCTP 200327 AAC
TAFAOO
TAF AMD
KAOO 200327Z 2003/2024 30010G15KT P6SM BKN025 BKN035
     FM201400 31012G22KT P6SM SCT060=



000
FTUS41 KCTP 200317 AAD
TAFJST
TAF AMD
KJST 200317Z 2003/2024 30010KT P6SM BKN015 OVC025
     FM201400 31012G22KT P6SM BKN050=



000
FTUS41 KCTP 200317 AAD
TAFJST
TAF AMD
KJST 200317Z 2003/2024 30010KT P6SM BKN015 OVC025
     FM201400 31012G22KT P6SM BKN050=



000
FTUS41 KCTP 200317 AAD
TAFJST
TAF AMD
KJST 200317Z 2003/2024 30010KT P6SM BKN015 OVC025
     FM201400 31012G22KT P6SM BKN050=



000
FTUS41 KCTP 200317 AAB
TAFUNV
TAF AMD
KUNV 200317Z 2003/2024 32010G15KT P6SM SCT035
     FM201400 31010G20KT P6SM SCT060=



000
FTUS41 KCTP 200317 AAB
TAFIPT
TAF AMD
KIPT 200317Z 2003/2024 30007KT P6SM SCT050
     FM201400 29010G20KT P6SM SCT060=



000
FTUS41 KCTP 200317 AAC
TAFBFD
TAF AMD
KBFD 200317Z 2003/2024 30010KT P6SM BKN015 BKN040
     FM201400 31012G18KT P6SM BKN050=



000
FTUS41 KCTP 200317 AAB
TAFUNV
TAF AMD
KUNV 200317Z 2003/2024 32010G15KT P6SM SCT035
     FM201400 31010G20KT P6SM SCT060=



000
FTUS41 KCTP 200317 AAB
TAFAOO
TAF AMD
KAOO 200317Z 2003/2024 30010G15KT P6SM SCT035
     FM201400 31012G22KT P6SM SCT060=



000
FTUS41 KCTP 200317 AAB
TAFIPT
TAF AMD
KIPT 200317Z 2003/2024 30007KT P6SM SCT050
     FM201400 29010G20KT P6SM SCT060=



000
FTUS41 KCTP 200317 AAB
TAFAOO
TAF AMD
KAOO 200317Z 2003/2024 30010G15KT P6SM SCT035
     FM201400 31012G22KT P6SM SCT060=



000
FTUS41 KCTP 200317 AAC
TAFBFD
TAF AMD
KBFD 200317Z 2003/2024 30010KT P6SM BKN015 BKN040
     FM201400 31012G18KT P6SM BKN050=



000
FTUS41 KCTP 200317 AAA
TAFMDT
TAF AMD
KMDT 200317Z 2003/2024 29010G15KT P6SM SKC
     FM201200 31013G22KT P6SM SCT060=



000
FTUS41 KCTP 200317 AAA
TAFMDT
TAF AMD
KMDT 200317Z 2003/2024 29010G15KT P6SM SKC
     FM201200 31013G22KT P6SM SCT060=



000
FTUS41 KCTP 200304 AAB
TAFBFD
TAF AMD
KBFD 200304Z 2003/2024 30010KT P6SM BKN015 BKN040
     FM201400 31012G18KT P6SM BKN050=



000
FTUS41 KCTP 200304 AAB
TAFBFD
TAF AMD
KBFD 200304Z 2003/2024 30010KT P6SM BKN015 BKN040
     FM201400 31012G18KT P6SM BKN050=



000
FTUS41 KCTP 200304 AAB
TAFBFD
TAF AMD
KBFD 200304Z 2003/2024 30010KT P6SM BKN015 BKN040
     FM201400 31012G18KT P6SM BKN050=



000
FTUS41 KCTP 200304 AAB
TAFBFD
TAF AMD
KBFD 200304Z 2003/2024 30010KT P6SM BKN015 BKN040
     FM201400 31012G18KT P6SM BKN050=



000
FTUS41 KCTP 200304 AAC
TAFJST
TAF AMD
KJST 200304Z 2003/2024 30010KT P6SM BKN015 OVC025
     FM201400 31012G22KT P6SM BKN050=



000
FTUS41 KCTP 200304 AAC
TAFJST
TAF AMD
KJST 200304Z 2003/2024 30010KT P6SM BKN015 OVC025
     FM201400 31012G22KT P6SM BKN050=



000
FTUS41 KCTP 200241 AAB
TAFJST
TAF AMD
KJST 200241Z 2003/2024 31010G15KT P6SM BKN020
     FM200500 30008KT P6SM BKN015 OVC025
     FM201400 31012G22KT P6SM BKN050=



000
FTUS41 KCTP 200241 AAB
TAFJST
TAF AMD
KJST 200241Z 2003/2024 31010G15KT P6SM BKN020
     FM200500 30008KT P6SM BKN015 OVC025
     FM201400 31012G22KT P6SM BKN050=



000
FTUS41 KCTP 200241 AAB
TAFJST
TAF AMD
KJST 200241Z 2003/2024 31010G15KT P6SM BKN020
     FM200500 30008KT P6SM BKN015 OVC025
     FM201400 31012G22KT P6SM BKN050=



000
FTUS41 KCTP 200241 AAB
TAFJST
TAF AMD
KJST 200241Z 2003/2024 31010G15KT P6SM BKN020
     FM200500 30008KT P6SM BKN015 OVC025
     FM201400 31012G22KT P6SM BKN050=



000
FTUS41 KCTP 200132 AAA
TAFIPT
TAF AMD
KIPT 200132Z 2002/2024 30007KT P6SM SCT050
     FM201400 29010G20KT P6SM SCT060=



000
FTUS41 KCTP 200132 AAA
TAFIPT
TAF AMD
KIPT 200132Z 2002/2024 30007KT P6SM SCT050
     FM201400 29010G20KT P6SM SCT060=



000
FTUS41 KCTP 200132 AAA
TAFUNV
TAF AMD
KUNV 200132Z 2002/2024 32010G15KT P6SM SCT035
     FM201400 31010G20KT P6SM SCT060=



000
FTUS41 KCTP 200132 AAA
TAFUNV
TAF AMD
KUNV 200132Z 2002/2024 32010G15KT P6SM SCT035
     FM201400 31010G20KT P6SM SCT060=



000
FTUS41 KCTP 200131 AAA
TAFAOO
TAF AMD
KAOO 200131Z 2002/2024 30010G15KT P6SM SCT035
     FM201400 31012G22KT P6SM SCT060=



000
FTUS41 KCTP 200131 AAA
TAFJST
TAF AMD
KJST 200131Z 2002/2024 31012G19KT P6SM SCT025
     FM200700 30008KT P6SM SCT015 OVC025
     FM201400 31012G22KT P6SM BKN050=



000
FTUS41 KCTP 200131 AAA
TAFJST
TAF AMD
KJST 200131Z 2002/2024 31012G19KT P6SM SCT025
     FM200700 30008KT P6SM SCT015 OVC025
     FM201400 31012G22KT P6SM BKN050=



000
FTUS41 KCTP 200130 AAA
TAFBFD
TAF AMD
KBFD 200130Z 2002/2024 29010KT P6SM BKN025 BKN040
     FM200600 30009KT P6SM BKN015 BKN040
     FM201400 31012G18KT P6SM BKN050=



000
FTUS41 KCTP 200130 AAA
TAFBFD
TAF AMD
KBFD 200130Z 2002/2024 29010KT P6SM BKN025 BKN040
     FM200600 30009KT P6SM BKN015 BKN040
     FM201400 31012G18KT P6SM BKN050=



000
FTUS41 KCTP 200130 AAA
TAFBFD
TAF AMD
KBFD 200130Z 2002/2024 29010KT P6SM BKN025 BKN040
     FM200600 30009KT P6SM BKN015 BKN040
     FM201400 31012G18KT P6SM BKN050=



000
FTUS41 KCTP 200130 AAA
TAFBFD
TAF AMD
KBFD 200130Z 2002/2024 29010KT P6SM BKN025 BKN040
     FM200600 30009KT P6SM BKN015 BKN040
     FM201400 31012G18KT P6SM BKN050=



000
FTUS41 KCTP 192320
TAFUNV
TAF
KUNV 192320Z 2000/2024 28012G22KT P6SM SCT050
     FM200300 28012G18KT P6SM SCT035
     FM201400 31010G20KT P6SM SCT060=



000
FTUS41 KCTP 192320
TAFJST
TAF
KJST 192320Z 2000/2024 28012G22KT P6SM SCT050
     FM200100 28010G16KT P6SM SCT025
     FM200700 30008KT P6SM SCT015 OVC025
     FM201400 31012G22KT P6SM BKN050=



000
FTUS41 KCTP 192320
TAFUNV
TAF
KUNV 192320Z 2000/2024 28012G22KT P6SM SCT050
     FM200300 28012G18KT P6SM SCT035
     FM201400 31010G20KT P6SM SCT060=



000
FTUS41 KCTP 192320
TAFIPT
TAF
KIPT 192320Z 2000/2024 26012G22KT P6SM SCT050
     FM200300 28012G18KT P6SM SCT035
     FM201400 29010G20KT P6SM SCT060=



000
FTUS41 KCTP 192320
TAFAOO
TAF
KAOO 192320Z 2000/2024 28012G22KT P6SM SCT060
     FM200300 30010G15KT P6SM SCT035
     FM201400 31012G22KT P6SM SCT060=



000
FTUS41 KCTP 192320
TAFBFD
TAF
KBFD 192320Z 2000/2024 30010G20KT P6SM BKN025 BKN040
     FM200600 30009KT P6SM BKN015 BKN040
     FM201400 31012G18KT P6SM BKN050=



000
FTUS41 KCTP 192320
TAFJST
TAF
KJST 192320Z 2000/2024 28012G22KT P6SM SCT050
     FM200100 28010G16KT P6SM SCT025
     FM200700 30008KT P6SM SCT015 OVC025
     FM201400 31012G22KT P6SM BKN050=



000
FTUS41 KCTP 192320
TAFJST
TAF
KJST 192320Z 2000/2024 28012G22KT P6SM SCT050
     FM200100 28010G16KT P6SM SCT025
     FM200700 30008KT P6SM SCT015 OVC025
     FM201400 31012G22KT P6SM BKN050=



000
FTUS41 KCTP 192320
TAFUNV
TAF
KUNV 192320Z 2000/2024 28012G22KT P6SM SCT050
     FM200300 28012G18KT P6SM SCT035
     FM201400 31010G20KT P6SM SCT060=



000
FTUS41 KCTP 192320
TAFIPT
TAF
KIPT 192320Z 2000/2024 26012G22KT P6SM SCT050
     FM200300 28012G18KT P6SM SCT035
     FM201400 29010G20KT P6SM SCT060=



000
FTUS41 KCTP 192320
TAFAOO
TAF
KAOO 192320Z 2000/2024 28012G22KT P6SM SCT060
     FM200300 30010G15KT P6SM SCT035
     FM201400 31012G22KT P6SM SCT060=



000
FTUS41 KCTP 192320
TAFMDT
TAF
KMDT 192320Z 2000/2024 27012G18KT P6SM SCT050
     FM200300 29010G15KT P6SM SKC
     FM201200 31013G22KT P6SM SCT060=



000
FTUS41 KCTP 192320
TAFJST
TAF
KJST 192320Z 2000/2024 28012G22KT P6SM SCT050
     FM200100 28010G16KT P6SM SCT025
     FM200700 30008KT P6SM SCT015 OVC025
     FM201400 31012G22KT P6SM BKN050=



000
FTUS41 KCTP 192320
TAFBFD
TAF
KBFD 192320Z 2000/2024 30010G20KT P6SM BKN025 BKN040
     FM200600 30009KT P6SM BKN015 BKN040
     FM201400 31012G18KT P6SM BKN050=



000
FTUS41 KCTP 192320
TAFAOO
TAF
KAOO 192320Z 2000/2024 28012G22KT P6SM SCT060
     FM200300 30010G15KT P6SM SCT035
     FM201400 31012G22KT P6SM SCT060=



000
FTUS41 KCTP 192320
TAFAOO
TAF
KAOO 192320Z 2000/2024 28012G22KT P6SM SCT060
     FM200300 30010G15KT P6SM SCT035
     FM201400 31012G22KT P6SM SCT060=



000
FTUS41 KCTP 192320
TAFMDT
TAF
KMDT 192320Z 2000/2024 27012G18KT P6SM SCT050
     FM200300 29010G15KT P6SM SKC
     FM201200 31013G22KT P6SM SCT060=



000
FTUS41 KCTP 192320
TAFUNV
TAF
KUNV 192320Z 2000/2024 28012G22KT P6SM SCT050
     FM200300 28012G18KT P6SM SCT035
     FM201400 31010G20KT P6SM SCT060=



000
FTUS41 KCTP 192320
TAFIPT
TAF
KIPT 192320Z 2000/2024 26012G22KT P6SM SCT050
     FM200300 28012G18KT P6SM SCT035
     FM201400 29010G20KT P6SM SCT060=



000
FTUS41 KCTP 192320
TAFIPT
TAF
KIPT 192320Z 2000/2024 26012G22KT P6SM SCT050
     FM200300 28012G18KT P6SM SCT035
     FM201400 29010G20KT P6SM SCT060=



000
FTUS41 KCTP 192320
TAFBFD
TAF
KBFD 192320Z 2000/2024 30010G20KT P6SM BKN025 BKN040
     FM200600 30009KT P6SM BKN015 BKN040
     FM201400 31012G18KT P6SM BKN050=



000
FTUS41 KCTP 192320
TAFMDT
TAF
KMDT 192320Z 2000/2024 27012G18KT P6SM SCT050
     FM200300 29010G15KT P6SM SKC
     FM201200 31013G22KT P6SM SCT060=



000
FTUS41 KCTP 192320
TAFMDT
TAF
KMDT 192320Z 2000/2024 27012G18KT P6SM SCT050
     FM200300 29010G15KT P6SM SKC
     FM201200 31013G22KT P6SM SCT060=



000
FTUS41 KCTP 192320
TAFBFD
TAF
KBFD 192320Z 2000/2024 30010G20KT P6SM BKN025 BKN040
     FM200600 30009KT P6SM BKN015 BKN040
     FM201400 31012G18KT P6SM BKN050=



000
FTUS41 KCTP 192254 AAC
TAFBFD
TAF AMD
KBFD 192254Z 1923/2018 30010G20KT P6SM BKN025 BKN040
     FM200600 30009KT P6SM BKN015 BKN040
     FM201400 31012G18KT P6SM BKN050=



000
FTUS41 KCTP 192254 AAC
TAFBFD
TAF AMD
KBFD 192254Z 1923/2018 30010G20KT P6SM BKN025 BKN040
     FM200600 30009KT P6SM BKN015 BKN040
     FM201400 31012G18KT P6SM BKN050=



000
FTUS41 KCTP 192125 AAA
TAFAOO
TAF AMD
KAOO 192125Z 1921/2018 29012G22KT P6SM SCT060
     FM200300 30010G15KT P6SM SCT035
     FM201400 31012G22KT P6SM SCT060=



000
FTUS41 KCTP 192125 AAB
TAFBFD
TAF AMD
KBFD 192125Z 1921/2018 28010G20KT P6SM SCT040
     FM200600 30009KT P6SM BKN040
     FM201400 31012G18KT P6SM BKN050=



000
FTUS41 KCTP 192125 AAA
TAFUNV
TAF AMD
KUNV 192125Z 1921/2018 28012G22KT P6SM SCT050
     FM200300 28010KT P6SM SCT035
     FM201400 31010G20KT P6SM SCT060=



000
FTUS41 KCTP 192125 AAB
TAFMDT
TAF AMD
KMDT 192125Z 1921/2018 30012G18KT P6SM SCT050
     FM200100 29010G15KT P6SM SKC
     FM201200 31013G22KT P6SM SCT060=



000
FTUS41 KCTP 192125 AAA
TAFIPT
TAF AMD
KIPT 192125Z 1921/2018 26012G22KT P6SM SCT050
     FM200300 28010KT P6SM SCT035
     FM201400 29010G20KT P6SM SCT060=



000
FTUS41 KCTP 192125 AAA
TAFJST
TAF AMD
KJST 192125Z 1921/2018 28012G22KT P6SM SCT050
     FM200100 28010G16KT P6SM SCT025
     FM201400 31012G22KT P6SM BKN050=



000
FTUS41 KCTP 192015 AAA
TAFMDT
TAF AMD
KMDT 192015Z 1920/2018 28012G18KT P6SM SCT050
     FM192300 31010G15KT P6SM SCT040
     FM200100 29011KT P6SM SKC
     FM201200 31013G22KT P6SM SCT060=



000
FTUS41 KCTP 192015 AAA
TAFMDT
TAF AMD
KMDT 192015Z 1920/2018 28012G18KT P6SM SCT050
     FM192300 31010G15KT P6SM SCT040
     FM200100 29011KT P6SM SKC
     FM201200 31013G22KT P6SM SCT060=



000
FTUS41 KCTP 192014 AAA
TAFBFD
TAF AMD
KBFD 192014Z 1920/2018 28010G20KT P6SM SCT040
     FM201400 31012G18KT P6SM BKN050=



000
FTUS41 KCTP 192014 AAA
TAFBFD
TAF AMD
KBFD 192014Z 1920/2018 28010G20KT P6SM SCT040
     FM201400 31012G18KT P6SM BKN050=



000
FTUS41 KCTP 191739 CCA
TAFMDT
TAF COR
KMDT 191739Z 1918/2018 18006KT P6SM SCT030
     FM191900 29012G22KT P6SM SCT050
      TEMPO 1920/1923 3SM -SHRA OVC050
     FM192300 31010KT P6SM VCSH SCT040
     FM200100 29011KT P6SM SKC
     FM201200 31013G22KT P6SM SCT060=



000
FTUS41 KCTP 191739 CCA
TAFMDT
TAF COR
KMDT 191739Z 1918/2018 18006KT P6SM SCT030
     FM191900 29012G22KT P6SM SCT050
      TEMPO 1920/1923 3SM -SHRA OVC050
     FM192300 31010KT P6SM VCSH SCT040
     FM200100 29011KT P6SM SKC
     FM201200 31013G22KT P6SM SCT060=



000
FTUS41 KCTP 191739 CCA
TAFMDT
TAF COR
KMDT 191739Z 1918/2018 18006KT P6SM SCT030
     FM191900 29012G22KT P6SM SCT050
      TEMPO 1920/1923 3SM -SHRA OVC050
     FM192300 31010KT P6SM VCSH SCT040
     FM200100 29011KT P6SM SKC
     FM201200 31013G22KT P6SM SCT060=



000
FTUS41 KCTP 191739 CCA
TAFMDT
TAF COR
KMDT 191739Z 1918/2018 18006KT P6SM SCT030
     FM191900 29012G22KT P6SM SCT050
      TEMPO 1920/1923 3SM -SHRA OVC050
     FM192300 31010KT P6SM VCSH SCT040
     FM200100 29011KT P6SM SKC
     FM201200 31013G22KT P6SM SCT060=



000
FTUS41 KCTP 191738
TAFAOO
TAF
KAOO 191738Z 1918/2018 29012G22KT P6SM SCT060
     FM200300 28013KT P6SM SCT035
     FM200700 29013KT P6SM BKN030
     FM201400 31012G22KT P6SM SCT060=



000
FTUS41 KCTP 191738
TAFMDT
TAF
KMDT 191738Z 1918/2018 29012G22KT P6SM SCT050
      TEMPO 1920/1923 3SM -SHRA OVC050
     FM192300 31010KT P6SM VCSH SCT040
     FM200100 29011KT P6SM SKC
     FM201200 31013G22KT P6SM SCT060=



000
FTUS41 KCTP 191738
TAFUNV
TAF
KUNV 191738Z 1918/2018 27012G22KT P6SM BKN060
     FM200300 28010KT P6SM SCT035
     FM200700 29010KT P6SM BKN030
     FM201400 31010G20KT P6SM SCT060=



000
FTUS41 KCTP 191738
TAFAOO
TAF
KAOO 191738Z 1918/2018 29012G22KT P6SM SCT060
     FM200300 28013KT P6SM SCT035
     FM200700 29013KT P6SM BKN030
     FM201400 31012G22KT P6SM SCT060=



000
FTUS41 KCTP 191738
TAFBFD
TAF
KBFD 191738Z 1918/2018 27010G20KT P6SM SCT020 BKN030
     FM200000 29007KT P6SM BKN020
     FM200300 30008KT P6SM OVC012
      TEMPO 2007/2011 OVC009
     FM201400 31012G18KT P6SM BKN030=



000
FTUS41 KCTP 191738
TAFUNV
TAF
KUNV 191738Z 1918/2018 27012G22KT P6SM BKN060
     FM200300 28010KT P6SM SCT035
     FM200700 29010KT P6SM BKN030
     FM201400 31010G20KT P6SM SCT060=



000
FTUS41 KCTP 191738
TAFJST
TAF
KJST 191738Z 1918/2018 27010G18KT P6SM BKN050
      TEMPO 1918/1919 BKN030
     FM200100 28013KT P6SM SCT025
     FM200400 30008KT P6SM OVC015
     FM201400 31012G22KT P6SM BKN030=



000
FTUS41 KCTP 191738
TAFIPT
TAF
KIPT 191738Z 1918/2018 26009KT P6SM VCSH SCT050
     FM200000 28010KT P6SM SCT035
     FM200700 28010KT P6SM BKN030
     FM201400 29010G20KT P6SM SCT060=



000
FTUS41 KCTP 191738
TAFMDT
TAF
KMDT 191738Z 1918/2018 29012G22KT P6SM SCT050
      TEMPO 1920/1923 3SM -SHRA OVC050
     FM192300 31010KT P6SM VCSH SCT040
     FM200100 29011KT P6SM SKC
     FM201200 31013G22KT P6SM SCT060=



000
FTUS41 KCTP 191738
TAFBFD
TAF
KBFD 191738Z 1918/2018 27010G20KT P6SM SCT020 BKN030
     FM200000 29007KT P6SM BKN020
     FM200300 30008KT P6SM OVC012
      TEMPO 2007/2011 OVC009
     FM201400 31012G18KT P6SM BKN030=



000
FTUS41 KCTP 191738
TAFBFD
TAF
KBFD 191738Z 1918/2018 27010G20KT P6SM SCT020 BKN030
     FM200000 29007KT P6SM BKN020
     FM200300 30008KT P6SM OVC012
      TEMPO 2007/2011 OVC009
     FM201400 31012G18KT P6SM BKN030=



000
FTUS41 KCTP 191738
TAFJST
TAF
KJST 191738Z 1918/2018 27010G18KT P6SM BKN050
      TEMPO 1918/1919 BKN030
     FM200100 28013KT P6SM SCT025
     FM200400 30008KT P6SM OVC015
     FM201400 31012G22KT P6SM BKN030=



000
FTUS41 KCTP 191738
TAFUNV
TAF
KUNV 191738Z 1918/2018 27012G22KT P6SM BKN060
     FM200300 28010KT P6SM SCT035
     FM200700 29010KT P6SM BKN030
     FM201400 31010G20KT P6SM SCT060=



000
FTUS41 KCTP 191738
TAFJST
TAF
KJST 191738Z 1918/2018 27010G18KT P6SM BKN050
      TEMPO 1918/1919 BKN030
     FM200100 28013KT P6SM SCT025
     FM200400 30008KT P6SM OVC015
     FM201400 31012G22KT P6SM BKN030=



000
FTUS41 KCTP 191738
TAFIPT
TAF
KIPT 191738Z 1918/2018 26009KT P6SM VCSH SCT050
     FM200000 28010KT P6SM SCT035
     FM200700 28010KT P6SM BKN030
     FM201400 29010G20KT P6SM SCT060=



000
FTUS41 KCTP 191738
TAFIPT
TAF
KIPT 191738Z 1918/2018 26009KT P6SM VCSH SCT050
     FM200000 28010KT P6SM SCT035
     FM200700 28010KT P6SM BKN030
     FM201400 29010G20KT P6SM SCT060=



000
FTUS41 KCTP 191738
TAFJST
TAF
KJST 191738Z 1918/2018 27010G18KT P6SM BKN050
      TEMPO 1918/1919 BKN030
     FM200100 28013KT P6SM SCT025
     FM200400 30008KT P6SM OVC015
     FM201400 31012G22KT P6SM BKN030=



000
FTUS41 KCTP 191738
TAFUNV
TAF
KUNV 191738Z 1918/2018 27012G22KT P6SM BKN060
     FM200300 28010KT P6SM SCT035
     FM200700 29010KT P6SM BKN030
     FM201400 31010G20KT P6SM SCT060=



000
FTUS41 KCTP 191738
TAFBFD
TAF
KBFD 191738Z 1918/2018 27010G20KT P6SM SCT020 BKN030
     FM200000 29007KT P6SM BKN020
     FM200300 30008KT P6SM OVC012
      TEMPO 2007/2011 OVC009
     FM201400 31012G18KT P6SM BKN030=



000
FTUS41 KCTP 191738
TAFMDT
TAF
KMDT 191738Z 1918/2018 29012G22KT P6SM SCT050
      TEMPO 1920/1923 3SM -SHRA OVC050
     FM192300 31010KT P6SM VCSH SCT040
     FM200100 29011KT P6SM SKC
     FM201200 31013G22KT P6SM SCT060=



000
FTUS41 KCTP 191738
TAFMDT
TAF
KMDT 191738Z 1918/2018 29012G22KT P6SM SCT050
      TEMPO 1920/1923 3SM -SHRA OVC050
     FM192300 31010KT P6SM VCSH SCT040
     FM200100 29011KT P6SM SKC
     FM201200 31013G22KT P6SM SCT060=



000
FTUS41 KCTP 191738
TAFAOO
TAF
KAOO 191738Z 1918/2018 29012G22KT P6SM SCT060
     FM200300 28013KT P6SM SCT035
     FM200700 29013KT P6SM BKN030
     FM201400 31012G22KT P6SM SCT060=



000
FTUS41 KCTP 191738
TAFAOO
TAF
KAOO 191738Z 1918/2018 29012G22KT P6SM SCT060
     FM200300 28013KT P6SM SCT035
     FM200700 29013KT P6SM BKN030
     FM201400 31012G22KT P6SM SCT060=



000
FTUS41 KCTP 191738
TAFIPT
TAF
KIPT 191738Z 1918/2018 26009KT P6SM VCSH SCT050
     FM200000 28010KT P6SM SCT035
     FM200700 28010KT P6SM BKN030
     FM201400 29010G20KT P6SM SCT060=



000
FTUS41 KCTP 191610 AAD
TAFMDT
TAF AMD
KMDT 191610Z 1916/2012 05004KT 4SM BR FEW008
     FM191630 27006KT P6SM SCT035
     FM191800 29012G22KT P6SM SCT050
      TEMPO 1920/1923 3SM -SHRA OVC050
     FM192300 31010KT P6SM VCSH SCT040
     FM200100 VRB03KT P6SM SKC=



000
FTUS41 KCTP 191610 AAD
TAFMDT
TAF AMD
KMDT 191610Z 1916/2012 05004KT 4SM BR FEW008
     FM191630 27006KT P6SM SCT035
     FM191800 29012G22KT P6SM SCT050
      TEMPO 1920/1923 3SM -SHRA OVC050
     FM192300 31010KT P6SM VCSH SCT040
     FM200100 VRB03KT P6SM SKC=



000
FTUS41 KCTP 191609 AAD
TAFIPT
TAF AMD
KIPT 191609Z 1916/2012 26009KT P6SM VCSH SCT050
     FM200000 29007KT P6SM SKC
     FM200900 27011KT P6SM SKC=



000
FTUS41 KCTP 191609 AAD
TAFIPT
TAF AMD
KIPT 191609Z 1916/2012 26009KT P6SM VCSH SCT050
     FM200000 29007KT P6SM SKC
     FM200900 27011KT P6SM SKC=



000
FTUS41 KCTP 191608 AAC
TAFUNV
TAF AMD
KUNV 191608Z 1916/2012 27012G22KT P6SM BKN050
     FM200000 29011KT P6SM SKC
     FM200600 29009KT P6SM SCT015 BKN250=



000
FTUS41 KCTP 191608 AAC
TAFUNV
TAF AMD
KUNV 191608Z 1916/2012 27012G22KT P6SM BKN050
     FM200000 29011KT P6SM SKC
     FM200600 29009KT P6SM SCT015 BKN250=



000
FTUS41 KCTP 191531 AAA
TAFJST
TAF AMD
KJST 191531Z 1916/2012 27010G18KT P6SM BKN050
      TEMPO 1916/1919 BKN030
     FM200100 28013KT P6SM SCT025=



000
FTUS41 KCTP 191531 AAA
TAFJST
TAF AMD
KJST 191531Z 1916/2012 27010G18KT P6SM BKN050
      TEMPO 1916/1919 BKN030
     FM200100 28013KT P6SM SCT025=



000
FTUS41 KCTP 191530 CCA
TAFIPT
TAF COR
KIPT 191530Z 1915/2012 26009KT P6SM VCSH SCT050
      TEMPO 1916/1917 4SM BR
     FM200000 29007KT P6SM SKC
     FM200900 27011KT P6SM SKC=



000
FTUS41 KCTP 191530 CCA
TAFIPT
TAF COR
KIPT 191530Z 1915/2012 26009KT P6SM VCSH SCT050
      TEMPO 1916/1917 4SM BR
     FM200000 29007KT P6SM SKC
     FM200900 27011KT P6SM SKC=



000
FTUS41 KCTP 191530 CCA
TAFIPT
TAF COR
KIPT 191530Z 1915/2012 26009KT P6SM VCSH SCT050
      TEMPO 1916/1917 4SM BR
     FM200000 29007KT P6SM SKC
     FM200900 27011KT P6SM SKC=



000
FTUS41 KCTP 191530 CCA
TAFIPT
TAF COR
KIPT 191530Z 1915/2012 26009KT P6SM VCSH SCT050
      TEMPO 1916/1917 4SM BR
     FM200000 29007KT P6SM SKC
     FM200900 27011KT P6SM SKC=



000
FTUS41 KCTP 191529 AAC
TAFIPT
TAF AMD
KIPT 191529Z 1915/2012 25004KT P6SM SCT007
     FM191700 26009KT P6SM VCSH SCT050
     FM200000 29007KT P6SM SKC
     FM200900 27011KT P6SM SKC=



000
FTUS41 KCTP 191529 AAC
TAFIPT
TAF AMD
KIPT 191529Z 1915/2012 25004KT P6SM SCT007
     FM191700 26009KT P6SM VCSH SCT050
     FM200000 29007KT P6SM SKC
     FM200900 27011KT P6SM SKC=



000
FTUS41 KCTP 191528 AAC
TAFMDT
TAF AMD
KMDT 191528Z 1915/2012 05004KT 3SM BR OVC005
      TEMPO 1915/1916 4SM BR SCT004 BKN035
     FM191600 27006KT P6SM SCT035
     FM191800 29012G22KT P6SM BKN050
      TEMPO 1920/1923 3SM -SHRA OVC050
     FM192300 31010KT P6SM VCSH SCT040
     FM200100 VRB03KT P6SM SKC=



000
FTUS41 KCTP 191528 AAC
TAFMDT
TAF AMD
KMDT 191528Z 1915/2012 05004KT 3SM BR OVC005
      TEMPO 1915/1916 4SM BR SCT004 BKN035
     FM191600 27006KT P6SM SCT035
     FM191800 29012G22KT P6SM BKN050
      TEMPO 1920/1923 3SM -SHRA OVC050
     FM192300 31010KT P6SM VCSH SCT040
     FM200100 VRB03KT P6SM SKC=



000
FTUS41 KCTP 191528 AAC
TAFMDT
TAF AMD
KMDT 191528Z 1915/2012 05004KT 3SM BR OVC005
      TEMPO 1915/1916 4SM BR SCT004 BKN035
     FM191600 27006KT P6SM SCT035
     FM191800 29012G22KT P6SM BKN050
      TEMPO 1920/1923 3SM -SHRA OVC050
     FM192300 31010KT P6SM VCSH SCT040
     FM200100 VRB03KT P6SM SKC=



000
FTUS41 KCTP 191401 AAB
TAFUNV
TAF AMD
KUNV 191401Z 1914/2012 26007KT P6SM SCT050
     FM191800 27012G22KT P6SM BKN050 BKN250
     FM200000 29011KT P6SM SKC
     FM200600 29009KT P6SM SCT015 BKN250=



000
FTUS41 KCTP 191401 AAB
TAFUNV
TAF AMD
KUNV 191401Z 1914/2012 26007KT P6SM SCT050
     FM191800 27012G22KT P6SM BKN050 BKN250
     FM200000 29011KT P6SM SKC
     FM200600 29009KT P6SM SCT015 BKN250=



000
FTUS41 KCTP 191401 AAB
TAFUNV
TAF AMD
KUNV 191401Z 1914/2012 26007KT P6SM SCT050
     FM191800 27012G22KT P6SM BKN050 BKN250
     FM200000 29011KT P6SM SKC
     FM200600 29009KT P6SM SCT015 BKN250=



000
FTUS41 KCTP 191400 AAA
TAFBFD
TAF AMD
KBFD 191400Z 1914/2012 28009KT P6SM BKN025
     FM191530 29010G20KT P6SM SCT050
     FM200100 29007KT P6SM OVC050=



000
FTUS41 KCTP 191400 AAA
TAFBFD
TAF AMD
KBFD 191400Z 1914/2012 28009KT P6SM BKN025
     FM191530 29010G20KT P6SM SCT050
     FM200100 29007KT P6SM OVC050=



000
FTUS41 KCTP 191400 AAA
TAFBFD
TAF AMD
KBFD 191400Z 1914/2012 28009KT P6SM BKN025
     FM191530 29010G20KT P6SM SCT050
     FM200100 29007KT P6SM OVC050=



000
FTUS41 KCTP 191400 AAA
TAFBFD
TAF AMD
KBFD 191400Z 1914/2012 28009KT P6SM BKN025
     FM191530 29010G20KT P6SM SCT050
     FM200100 29007KT P6SM OVC050=



000
FTUS41 KCTP 191358 AAB
TAFIPT
TAF AMD
KIPT 191358Z 1914/2012 11004KT 2SM BR OVC004
     FM191430 25004KT P6SM BKN007 OVC015
     FM191500 26010G20KT P6SM SCT035
      TEMPO 1918/1921 3SM -SHRA BKN035
     FM200000 29007KT P6SM SKC
     FM200900 27011KT P6SM SKC=



000
FTUS41 KCTP 191358 AAB
TAFIPT
TAF AMD
KIPT 191358Z 1914/2012 11004KT 2SM BR OVC004
     FM191430 25004KT P6SM BKN007 OVC015
     FM191500 26010G20KT P6SM SCT035
      TEMPO 1918/1921 3SM -SHRA BKN035
     FM200000 29007KT P6SM SKC
     FM200900 27011KT P6SM SKC=



000
FTUS41 KCTP 191358 AAB
TAFMDT
TAF AMD
KMDT 191358Z 1914/2012 05004KT 2SM BR OVC003
      TEMPO 1914/1915 4SM BR SCT004 BKN035
     FM191500 27006KT P6SM SCT035
     FM191800 29012G22KT P6SM BKN050
      TEMPO 1920/1923 3SM -SHRA OVC050
     FM192300 31010KT P6SM VCSH SCT040
     FM200100 VRB03KT P6SM SKC=



000
FTUS41 KCTP 191334 AAA
TAFUNV
TAF AMD
KUNV 191334Z 1914/2012 26007KT P6SM SCT025 BKN050
     FM191800 27012G22KT P6SM BKN050 BKN250
     FM200000 29011KT P6SM SKC
     FM200600 29009KT P6SM SCT015 BKN250=



000
FTUS41 KCTP 191334 AAA
TAFUNV
TAF AMD
KUNV 191334Z 1914/2012 26007KT P6SM SCT025 BKN050
     FM191800 27012G22KT P6SM BKN050 BKN250
     FM200000 29011KT P6SM SKC
     FM200600 29009KT P6SM SCT015 BKN250=



000
FTUS41 KCTP 191329 AAA
TAFAOO
TAF AMD
KAOO 191329Z 1913/2012 28007KT 6SM BR SCT025 BKN050
     FM191700 29012G22KT P6SM BKN050
     FM200000 31011KT P6SM SCT250=



000
FTUS41 KCTP 191329 AAA
TAFAOO
TAF AMD
KAOO 191329Z 1913/2012 28007KT 6SM BR SCT025 BKN050
     FM191700 29012G22KT P6SM BKN050
     FM200000 31011KT P6SM SCT250=



000
FTUS41 KCTP 191323 AAA
TAFMDT
TAF AMD
KMDT 191323Z 1913/2012 05004KT 1SM BR OVC002
      TEMPO 1914/1915 4SM BR SCT004 BKN035
     FM191500 27006KT P6SM SCT035
     FM191800 29012G22KT P6SM BKN050
      TEMPO 1920/1923 3SM -SHRA OVC050
     FM192300 31010KT P6SM VCSH SCT040
     FM200100 VRB03KT P6SM SKC=



000
FTUS41 KCTP 191323 AAA
TAFMDT
TAF AMD
KMDT 191323Z 1913/2012 05004KT 1SM BR OVC002
      TEMPO 1914/1915 4SM BR SCT004 BKN035
     FM191500 27006KT P6SM SCT035
     FM191800 29012G22KT P6SM BKN050
      TEMPO 1920/1923 3SM -SHRA OVC050
     FM192300 31010KT P6SM VCSH SCT040
     FM200100 VRB03KT P6SM SKC=



000
FTUS41 KCTP 191320 AAA
TAFIPT
TAF AMD
KIPT 191320Z 1913/2012 11004KT 2SM BR OVC003
     FM191430 25004KT P6SM BKN007 OVC015
     FM191500 26010G20KT P6SM SCT035
      TEMPO 1918/1921 3SM -SHRA BKN035
     FM200000 29007KT P6SM SKC
     FM200900 27011KT P6SM SKC=



000
FTUS41 KCTP 191320 AAA
TAFIPT
TAF AMD
KIPT 191320Z 1913/2012 11004KT 2SM BR OVC003
     FM191430 25004KT P6SM BKN007 OVC015
     FM191500 26010G20KT P6SM SCT035
      TEMPO 1918/1921 3SM -SHRA BKN035
     FM200000 29007KT P6SM SKC
     FM200900 27011KT P6SM SKC=



    US Dept of Commerce
    National Oceanic and Atmospheric Administration
    National Weather Service
    1325 East West Highway
    Silver Spring, MD 20910
    Page Author: NWS Internet Services Team
Disclaimer
Information Quality
Credits
Glossary
Privacy Policy
Freedom of Information Act (FOIA)
About Us
Career Opportunities